Meteorology homepage Current Weather at the Dr. Eugene Chermack
Surface Weather Station at SUNY Oswego









Pressure, temperature, and humidity data

                                          ---------- 10-meter --------   -------------- 2-meter -----------------
Year    mnth   day  hh    mm     ss       TT TTmax TTmin RH Rhmax RHmin TT TTmax TTmin RH Rhmax RHmin Td Tdmax Tdmin

-sfc pressure --- 10-meter --- -- Visibility--
PP PPmax PPmin Tch Tchmax Tchmin Vis Vismax Vismin Current_weather

-- Ground -- --- Precipitation ----
Tg Tgmax Tgmin Vr_daily Vr_month Vr_year
2017	09	20	01	29	59 	  66.6	  68.8	  66.6	  89.3	 89.4	 81.0	  64.6	  67.1	  64.6	  89.9	  89.9	  85.4	  61.6	  63.0	  61.4	 1005.8	 1005.9	 1005.6	  64.5	  66.7	  64.5	65616	 65617	 56486	Clear	  71.0	  71.5	  69.5	  0.00	  2.38	 37.12	
2017	09	20	01	29	29 	  66.6	  68.8	  66.6	  89.4	 89.4	 81.0	  64.6	  67.1	  64.6	  89.9	  89.9	  85.4	  61.6	  63.0	  61.4	 1005.8	 1005.9	 1005.6	  64.5	  66.7	  64.5	65616	 65617	 56486	Clear	  71.0	  71.5	  69.5	  0.00	  2.38	 37.12	
2017	09	20	01	28	59 	  66.6	  68.8	  66.6	  89.3	 89.2	 81.0	  64.7	  67.1	  64.7	  89.9	  89.9	  84.8	  61.6	  63.0	  61.4	 1005.9	 1005.9	 1005.6	  64.6	  66.9	  64.6	58730	 65617	 56486	Clear	  71.0	  71.5	  69.5	  0.00	  2.38	 37.12	
2017	09	20	01	28	29 	  66.6	  68.8	  66.6	  89.2	 89.2	 81.0	  64.7	  67.1	  64.7	  89.9	  89.9	  84.8	  61.6	  63.0	  61.4	 1005.8	 1005.9	 1005.6	  64.6	  66.9	  64.6	57562	 65617	 56486	Clear	  71.0	  71.5	  69.5	  0.00	  2.38	 37.12	
2017	09	20	01	27	59 	  66.7	  68.8	  66.7	  89.1	 89.0	 81.0	  64.7	  67.2	  64.7	  89.9	  89.8	  84.3	  61.6	  63.0	  61.4	 1005.8	 1005.9	 1005.6	  64.6	  67.0	  64.6	62385	 65617	 56486	Clear	  71.0	  71.5	  69.5	  0.00	  2.38	 37.12	
2017	09	20	01	27	29 	  66.7	  68.8	  66.7	  89.0	 89.0	 81.0	  64.7	  67.2	  64.7	  89.8	  89.8	  84.3	  61.6	  63.0	  61.4	 1005.8	 1005.9	 1005.6	  64.6	  67.0	  64.6	61473	 65617	 56486	Clear	  71.0	  71.5	  69.5	  0.00	  2.38	 37.12	
2017	09	20	01	26	59 	  66.7	  68.8	  66.8	  88.8	 88.6	 81.0	  64.7	  67.3	  64.7	  89.7	  89.6	  83.9	  61.6	  63.0	  61.4	 1005.8	 1005.9	 1005.6	  64.6	  67.1	  64.6	59091	 65617	 56486	Clear	  71.0	  71.5	  69.5	  0.00	  2.38	 37.12	
2017	09	20	01	26	29 	  66.8	  68.8	  66.8	  88.6	 88.6	 81.0	  64.7	  67.3	  64.7	  89.6	  89.6	  83.9	  61.6	  63.0	  61.4	 1005.8	 1005.9	 1005.6	  64.6	  67.1	  64.6	61932	 65617	 56486	Clear	  71.0	  71.5	  69.5	  0.00	  2.38	 37.12	
2017	09	20	01	25	59 	  66.9	  68.8	  66.9	  88.3	 88.5	 81.0	  64.7	  67.3	  64.7	  89.5	  89.5	  83.6	  61.5	  63.0	  61.4	 1005.8	 1005.9	 1005.6	  64.7	  67.2	  64.7	65456	 65617	 56486	Clear	  71.0	  71.5	  69.5	  0.00	  2.38	 37.12	
2017	09	20	01	25	29 	  66.9	  68.8	  66.9	  88.1	 88.5	 81.0	  64.7	  67.3	  64.7	  89.4	  89.5	  83.6	  61.6	  63.0	  61.4	 1005.8	 1005.9	 1005.6	  64.7	  67.2	  64.7	65616	 65617	 56486	Clear	  71.0	  71.5	  69.5	  0.00	  2.38	 37.12	
2017	09	20	01	24	59 	  67.0	  68.9	  67.0	  87.9	 88.5	 81.0	  64.7	  67.4	  64.7	  89.3	  89.5	  83.2	  61.6	  63.0	  61.4	 1005.8	 1005.9	 1005.6	  64.8	  67.2	  64.7	65616	 65617	 56486	Clear	  71.0	  71.5	  69.5	  0.00	  2.38	 37.12	
2017	09	20	01	24	29 	  67.0	  68.9	  67.0	  87.9	 88.5	 81.0	  64.7	  67.4	  64.7	  89.3	  89.5	  83.2	  61.6	  63.0	  61.4	 1005.8	 1005.9	 1005.6	  64.8	  67.2	  64.7	65616	 65617	 56486	Clear	  71.0	  71.5	  69.5	  0.00	  2.38	 37.12	
2017	09	20	01	23	59 	  67.1	  68.9	  67.0	  87.9	 88.5	 81.0	  64.7	  67.5	  64.7	  89.3	  89.5	  82.8	  61.6	  63.0	  61.4	 1005.8	 1005.9	 1005.6	  64.7	  67.3	  64.7	64852	 65617	 56486	Clear	  71.0	  71.5	  69.5	  0.00	  2.38	 37.12	
2017	09	20	01	23	29 	  67.0	  68.9	  67.0	  87.9	 88.5	 81.0	  64.7	  67.5	  64.7	  89.4	  89.5	  82.8	  61.6	  63.0	  61.4	 1005.8	 1005.9	 1005.6	  64.7	  67.3	  64.7	58510	 65617	 56486	Clear	  71.0	  71.5	  69.5	  0.00	  2.38	 37.12	
2017	09	20	01	22	59 	  67.0	  68.9	  67.0	  88.0	 88.5	 80.9	  64.7	  67.6	  64.7	  89.4	  89.5	  82.3	  61.6	  63.0	  61.4	 1005.8	 1005.9	 1005.6	  64.7	  67.3	  64.7	61912	 65617	 56486	Clear	  71.0	  71.5	  69.5	  0.00	  2.38	 37.12	
2017	09	20	01	22	29 	  67.0	  68.9	  67.0	  88.0	 88.5	 80.9	  64.7	  67.6	  64.7	  89.4	  89.5	  82.3	  61.6	  63.0	  61.4	 1005.8	 1005.9	 1005.6	  64.7	  67.3	  64.7	65616	 65617	 56486	Clear	  71.0	  71.5	  69.5	  0.00	  2.38	 37.12	
2017	09	20	01	21	59 	  67.0	  68.9	  67.0	  87.9	 88.5	 80.8	  64.7	  67.8	  64.7	  89.4	  89.5	  81.7	  61.6	  63.0	  61.4	 1005.8	 1005.9	 1005.6	  64.8	  67.4	  64.7	65616	 65617	 56486	Clear	  71.0	  71.5	  69.5	  0.00	  2.38	 37.12	
2017	09	20	01	21	29 	  67.0	  68.9	  67.0	  87.8	 88.5	 80.8	  64.7	  67.8	  64.7	  89.4	  89.5	  81.7	  61.6	  63.0	  61.4	 1005.8	 1005.9	 1005.6	  64.8	  67.4	  64.7	65616	 65617	 56486	Clear	  71.0	  71.5	  69.5	  0.00	  2.38	 37.12	
2017	09	20	01	20	59 	  67.0	  68.9	  67.0	  87.8	 88.5	 80.8	  64.7	  67.9	  64.7	  89.5	  89.5	  81.1	  61.5	  63.0	  61.4	 1005.8	 1005.9	 1005.6	  64.8	  67.5	  64.7	65616	 65617	 56486	Clear	  71.0	  71.5	  69.5	  0.00	  2.38	 37.12	
2017	09	20	01	20	29 	  67.0	  68.9	  67.0	  87.7	 88.5	 80.8	  64.7	  67.9	  64.7	  89.5	  89.5	  81.1	  61.5	  63.0	  61.4	 1005.8	 1005.9	 1005.6	  64.8	  67.5	  64.7	65616	 65617	 56486	Clear	  71.0	  71.5	  69.5	  0.00	  2.38	 37.12	
2017	09	20	01	19	59 	  67.0	  69.0	  67.1	  87.6	 88.5	 80.6	  64.7	  68.1	  64.7	  89.5	  89.4	  80.5	  61.5	  63.0	  61.4	 1005.8	 1005.9	 1005.6	  64.8	  67.6	  64.7	65616	 65617	 56486	Clear	  71.0	  71.5	  69.5	  0.00	  2.38	 37.12	
2017	09	20	01	19	29 	  67.1	  69.0	  67.1	  87.4	 88.5	 80.6	  64.7	  68.1	  64.7	  89.4	  89.4	  80.5	  61.5	  63.0	  61.4	 1005.8	 1005.9	 1005.6	  64.8	  67.6	  64.7	65616	 65617	 56486	Clear	  71.0	  71.5	  69.5	  0.00	  2.38	 37.12	
2017	09	20	01	18	59 	  67.1	  69.1	  67.1	  87.2	 88.5	 80.2	  64.8	  68.3	  64.8	  89.4	  89.3	  79.8	  61.5	  63.0	  61.4	 1005.8	 1005.9	 1005.6	  64.7	  67.7	  64.7	64514	 65617	 56486	Clear	  71.0	  71.5	  69.5	  0.00	  2.38	 37.12	
2017	09	20	01	18	29 	  67.2	  69.1	  67.1	  87.0	 88.5	 80.2	  64.8	  68.3	  64.8	  89.3	  89.3	  79.8	  61.5	  63.0	  61.4	 1005.8	 1005.9	 1005.6	  64.7	  67.7	  64.7	65616	 65617	 56486	Clear	  71.0	  71.5	  69.5	  0.00	  2.38	 37.12	
2017	09	20	01	17	59 	  67.3	  69.2	  67.1	  86.7	 88.5	 79.8	  64.8	  68.5	  64.8	  89.3	  89.2	  79.0	  61.5	  63.0	  61.4	 1005.8	 1005.9	 1005.6	  64.8	  67.8	  64.7	65616	 65617	 56486	Clear	  71.0	  71.5	  69.5	  0.00	  2.38	 37.12	
2017	09	20	01	17	29 	  67.3	  69.2	  67.1	  86.5	 88.5	 79.8	  64.8	  68.5	  64.8	  89.2	  89.2	  79.0	  61.5	  63.0	  61.4	 1005.8	 1005.9	 1005.6	  64.8	  67.8	  64.7	65616	 65617	 56486	Clear	  71.0	  71.5	  69.5	  0.00	  2.38	 37.12	
2017	09	20	01	16	59 	  67.4	  69.4	  67.1	  86.3	 88.5	 79.4	  64.8	  68.7	  64.8	  89.2	  89.1	  78.2	  61.5	  63.0	  61.4	 1005.8	 1005.9	 1005.6	  64.7	  68.1	  64.7	65616	 65617	 56486	Clear	  71.0	  71.5	  69.5	  0.00	  2.38	 37.12	
2017	09	20	01	16	29 	  67.4	  69.4	  67.1	  86.1	 88.5	 79.4	  64.8	  68.7	  64.8	  89.1	  89.1	  78.2	  61.5	  63.0	  61.4	 1005.8	 1005.9	 1005.6	  64.7	  68.1	  64.7	65616	 65617	 56486	Clear	  71.0	  71.5	  69.5	  0.00	  2.38	 37.12	
2017	09	20	01	15	59 	  67.5	  69.5	  67.1	  86.0	 88.5	 78.9	  64.8	  68.9	  64.8	  89.1	  89.0	  77.5	  61.5	  63.0	  61.4	 1005.8	 1005.9	 1005.6	  64.8	  68.3	  64.8	65616	 65617	 56486	Clear	  71.0	  71.5	  69.5	  0.00	  2.38	 37.12	
2017	09	20	01	15	29 	  67.6	  69.5	  67.1	  85.8	 88.5	 78.9	  64.8	  68.9	  64.8	  89.0	  89.0	  77.5	  61.5	  63.0	  61.4	 1005.8	 1005.9	 1005.6	  64.8	  68.3	  64.8	65616	 65617	 56486	Clear	  71.0	  71.5	  69.5	  0.00	  2.38	 37.12	
2017	09	20	01	14	59 	  67.6	  69.5	  67.1	  85.7	 88.5	 78.6	  64.8	  69.0	  64.8	  88.9	  89.0	  76.8	  61.5	  63.0	  61.4	 1005.8	 1005.9	 1005.6	  64.9	  68.6	  64.8	65616	 65617	 56486	Clear	  71.0	  71.5	  69.5	  0.00	  2.38	 37.12	
2017	09	20	01	14	29 	  67.6	  69.5	  67.1	  85.5	 88.5	 78.6	  64.8	  69.0	  64.8	  88.9	  89.0	  76.8	  61.5	  63.0	  61.4	 1005.8	 1005.9	 1005.6	  64.9	  68.6	  64.8	65616	 65617	 56486	Clear	  71.0	  71.5	  69.5	  0.00	  2.38	 37.12	
2017	09	20	01	13	59 	  67.7	  69.6	  67.1	  85.4	 88.5	 78.5	  64.8	  69.1	  64.9	  88.8	  89.0	  76.4	  61.5	  63.0	  61.3	 1005.8	 1005.9	 1005.6	  64.9	  68.7	  64.8	65616	 65617	 56486	Clear	  71.0	  71.5	  69.5	  0.00	  2.38	 37.12	
2017	09	20	01	13	29 	  67.7	  69.6	  67.1	  85.2	 88.5	 78.5	  64.9	  69.1	  64.9	  88.8	  89.0	  76.4	  61.5	  63.0	  61.3	 1005.8	 1005.9	 1005.6	  64.9	  68.7	  64.8	65616	 65617	 56486	Clear	  71.0	  71.5	  69.5	  0.00	  2.38	 37.12	
2017	09	20	01	12	59 	  67.8	  69.6	  67.1	  85.0	 88.5	 78.4	  64.9	  69.1	  64.9	  88.7	  89.0	  76.2	  61.5	  63.0	  61.3	 1005.8	 1005.9	 1005.6	  64.8	  69.0	  64.8	65616	 65617	 56486	Clear	  71.0	  71.5	  69.5	  0.00	  2.38	 37.12	
2017	09	20	01	12	29 	  67.9	  69.6	  67.1	  84.9	 88.5	 78.4	  64.9	  69.1	  64.9	  88.6	  89.0	  76.2	  61.5	  63.0	  61.3	 1005.8	 1005.9	 1005.6	  64.8	  69.0	  64.8	65616	 65617	 56486	Clear	  71.0	  71.5	  69.5	  0.00	  2.38	 37.12	
2017	09	20	01	11	59 	  67.9	  69.6	  67.1	  84.9	 88.5	 78.4	  64.9	  69.1	  64.9	  88.6	  89.0	  76.2	  61.5	  63.0	  61.3	 1005.8	 1005.9	 1005.6	  64.8	  69.1	  64.8	65616	 65617	 56486	Clear	  71.1	  71.5	  69.5	  0.00	  2.38	 37.12	
2017	09	20	01	11	29 	  67.9	  69.6	  67.1	  84.8	 88.5	 78.4	  64.9	  69.1	  64.9	  88.5	  89.0	  76.2	  61.5	  63.0	  61.3	 1005.8	 1005.9	 1005.6	  64.8	  69.1	  64.8	65616	 65617	 56486	Clear	  71.0	  71.5	  69.5	  0.00	  2.38	 37.12	
2017	09	20	01	10	59 	  67.9	  69.6	  67.1	  84.8	 88.5	 78.4	  65.0	  69.1	  64.9	  88.5	  89.0	  76.2	  61.5	  63.0	  61.3	 1005.8	 1005.9	 1005.6	  64.9	  69.2	  64.9	65616	 65617	 56486	Clear	  71.0	  71.5	  69.5	  0.00	  2.38	 37.12	
2017	09	20	01	10	29 	  67.9	  69.6	  67.1	  84.8	 88.5	 78.4	  65.0	  69.1	  64.9	  88.5	  89.0	  76.2	  61.5	  63.0	  61.3	 1005.8	 1005.9	 1005.6	  64.9	  69.2	  64.9	65616	 65617	 56486	Clear	  71.0	  71.5	  69.5	  0.00	  2.38	 37.12	
2017	09	20	01	09	59 	  67.9	  69.6	  67.1	  84.9	 88.5	 78.4	  65.0	  69.1	  64.9	  88.5	  89.0	  76.2	  61.5	  63.0	  61.3	 1005.8	 1005.8	 1005.6	  64.9	  69.2	  64.9	65616	 65617	 56486	Clear	  71.0	  71.5	  69.5	  0.00	  2.38	 37.12	
2017	09	20	01	09	29 	  67.9	  69.6	  67.1	  85.0	 88.5	 78.4	  65.0	  69.1	  64.9	  88.5	  89.0	  76.2	  61.5	  63.0	  61.3	 1005.8	 1005.8	 1005.6	  64.9	  69.2	  64.9	65616	 65617	 56486	Clear	  71.0	  71.5	  69.5	  0.00	  2.38	 37.12	
2017	09	20	01	08	59 	  67.9	  69.6	  67.1	  85.2	 88.5	 78.4	  65.0	  69.1	  64.9	  88.5	  89.0	  76.2	  61.5	  63.0	  61.3	 1005.8	 1005.8	 1005.6	  64.9	  69.2	  64.9	65616	 65617	 56486	Clear	  71.1	  71.5	  69.5	  0.00	  2.38	 37.12	
2017	09	20	01	08	29 	  67.8	  69.6	  67.1	  85.4	 88.5	 78.4	  65.0	  69.1	  64.9	  88.6	  89.0	  76.2	  61.5	  63.0	  61.3	 1005.8	 1005.8	 1005.6	  64.9	  69.2	  64.9	65616	 65617	 56486	Clear	  71.0	  71.5	  69.5	  0.00	  2.38	 37.12	
2017	09	20	01	07	59 	  67.7	  69.6	  67.1	  85.7	 88.5	 78.4	  65.0	  69.1	  64.9	  88.6	  89.0	  76.2	  61.5	  63.0	  61.3	 1005.8	 1005.9	 1005.6	  65.0	  69.2	  64.9	65616	 65617	 56486	Clear	  71.1	  71.5	  69.5	  0.00	  2.38	 37.12	
2017	09	20	01	07	29 	  67.6	  69.6	  67.1	  86.0	 88.5	 78.4	  65.0	  69.1	  64.9	  88.7	  89.0	  76.2	  61.5	  63.0	  61.3	 1005.8	 1005.9	 1005.6	  65.0	  69.2	  64.9	65616	 65617	 56486	Clear	  71.0	  71.5	  69.5	  0.00	  2.38	 37.12	
2017	09	20	01	06	59 	  67.5	  69.6	  67.1	  86.3	 88.5	 78.4	  64.9	  69.1	  64.9	  88.7	  89.0	  76.2	  61.5	  63.0	  61.3	 1005.8	 1005.9	 1005.6	  65.0	  69.2	  64.9	65616	 65617	 56486	Clear	  71.0	  71.5	  69.5	  0.00	  2.38	 37.12	
2017	09	20	01	06	29 	  67.4	  69.6	  67.1	  86.5	 88.5	 78.4	  64.9	  69.1	  64.9	  88.7	  89.0	  76.2	  61.5	  63.0	  61.3	 1005.8	 1005.9	 1005.6	  65.0	  69.2	  64.9	65616	 65617	 56486	Clear	  71.0	  71.5	  69.5	  0.00	  2.38	 37.12	
2017	09	20	01	05	59 	  67.3	  69.6	  67.1	  86.7	 88.5	 78.4	  64.9	  69.1	  64.9	  88.7	  89.0	  76.2	  61.5	  63.0	  61.3	 1005.8	 1005.9	 1005.6	  65.0	  69.2	  64.9	65616	 65617	 56486	Clear	  71.0	  71.5	  69.5	  0.00	  2.38	 37.12	
2017	09	20	01	05	29 	  67.2	  69.6	  67.1	  86.7	 88.5	 78.4	  64.9	  69.1	  64.9	  88.7	  89.0	  76.2	  61.6	  63.0	  61.3	 1005.8	 1005.9	 1005.6	  65.0	  69.2	  64.9	65616	 65617	 56486	Clear	  71.0	  71.5	  69.5	  0.00	  2.38	 37.12	
2017	09	20	01	04	59 	  67.3	  69.6	  67.1	  86.6	 88.5	 78.4	  64.9	  69.1	  65.0	  88.6	  89.0	  76.2	  61.6	  63.0	  61.3	 1005.8	 1005.9	 1005.6	  64.9	  69.2	  64.9	65616	 65617	 56486	Clear	  71.0	  71.5	  69.5	  0.00	  2.38	 37.12	
2017	09	20	01	04	29 	  67.3	  69.6	  67.1	  86.4	 88.5	 78.4	  65.0	  69.1	  65.0	  88.5	  89.0	  76.2	  61.6	  63.0	  61.3	 1005.8	 1005.9	 1005.6	  64.9	  69.2	  64.9	65616	 65617	 56486	Clear	  71.1	  71.5	  69.5	  0.00	  2.38	 37.12	
2017	09	20	01	03	59 	  67.3	  69.6	  67.1	  86.2	 88.5	 78.4	  65.0	  69.1	  65.0	  88.5	  89.0	  76.2	  61.6	  63.0	  61.3	 1005.8	 1005.9	 1005.6	  64.9	  69.2	  64.9	65616	 65617	 56486	Clear	  71.1	  71.5	  69.5	  0.00	  2.38	 37.12	
2017	09	20	01	03	29 	  67.4	  69.6	  67.1	  86.0	 88.5	 78.4	  65.0	  69.1	  65.0	  88.5	  89.0	  76.2	  61.6	  63.0	  61.3	 1005.8	 1005.9	 1005.6	  64.9	  69.2	  64.9	65616	 65617	 56486	Clear	  71.1	  71.5	  69.5	  0.00	  2.38	 37.12	
2017	09	20	01	02	59 	  67.5	  69.6	  67.1	  85.7	 88.5	 78.4	  65.0	  69.1	  65.1	  88.5	  89.0	  76.2	  61.6	  63.0	  61.3	 1005.8	 1005.9	 1005.6	  64.9	  69.2	  64.9	65616	 65617	 56486	Clear	  71.0	  71.5	  69.5	  0.00	  2.38	 37.12	
2017	09	20	01	02	29 	  67.6	  69.6	  67.1	  85.3	 88.5	 78.4	  65.1	  69.1	  65.1	  88.5	  89.0	  76.2	  61.6	  63.0	  61.3	 1005.8	 1005.9	 1005.6	  64.9	  69.2	  64.9	65616	 65617	 56486	Clear	  71.1	  71.5	  69.5	  0.00	  2.38	 37.12	
2017	09	20	01	01	59 	  67.8	  69.6	  67.1	  84.8	 88.5	 78.4	  65.1	  69.1	  65.1	  88.5	  89.0	  76.2	  61.6	  63.0	  61.3	 1005.8	 1005.9	 1005.6	  64.9	  69.2	  64.9	65616	 65617	 56486	Clear	  71.0	  71.5	  69.5	  0.00	  2.38	 37.12	
2017	09	20	01	01	29 	  67.9	  69.6	  67.1	  84.3	 88.5	 78.4	  65.1	  69.1	  65.1	  88.5	  89.0	  76.2	  61.6	  63.0	  61.3	 1005.8	 1005.9	 1005.6	  64.9	  69.2	  64.9	65616	 65617	 56486	Clear	  71.0	  71.5	  69.5	  0.00	  2.38	 37.12	
2017	09	20	01	00	59 	  68.1	  69.6	  67.1	  83.8	 88.5	 78.4	  65.2	  69.1	  65.2	  88.4	  89.0	  76.2	  61.6	  63.0	  61.3	 1005.8	 1006.0	 1005.6	  65.1	  69.2	  65.1	64324	 65617	 56486	Clear	  71.0	  71.5	  69.5	  0.00	  2.38	 37.12	
2017	09	20	01	00	29 	  68.2	  69.6	  67.1	  83.3	 88.5	 78.4	  65.2	  69.1	  65.2	  88.3	  89.0	  76.2	  61.6	  63.0	  61.3	 1005.8	 1006.0	 1005.6	  65.1	  69.2	  65.1	65616	 65617	 56486	Clear	  71.0	  71.5	  69.5	  0.00	  2.38	 37.12	
2017	09	20	00	59	59 	  68.3	  69.6	  67.1	  82.9	 88.5	 78.4	  65.3	  69.1	  65.3	  88.2	  89.0	  76.2	  61.6	  63.0	  61.3	 1005.8	 1006.0	 1005.6	  65.2	  69.2	  65.2	65616	 65617	 56486	Clear	  71.1	  71.5	  69.5	  0.00	  2.38	 37.12	
2017	09	20	00	59	29 	  68.5	  69.6	  67.1	  82.5	 88.5	 78.4	  65.3	  69.1	  65.3	  88.0	  89.0	  76.2	  61.6	  63.0	  61.3	 1005.8	 1006.0	 1005.6	  65.2	  69.2	  65.2	65616	 65617	 56486	Clear	  71.0	  71.5	  69.5	  0.00	  2.38	 37.12	
2017	09	20	00	58	59 	  68.6	  69.6	  67.1	  82.2	 88.5	 78.4	  65.4	  69.1	  65.4	  87.8	  89.0	  76.2	  61.7	  63.0	  61.3	 1005.8	 1006.0	 1005.6	  65.2	  69.2	  65.2	65616	 65617	 56486	Clear	  71.1	  71.5	  69.5	  0.00	  2.38	 37.12	
2017	09	20	00	58	29 	  68.7	  69.6	  67.1	  81.8	 88.5	 78.4	  65.4	  69.1	  65.4	  87.7	  89.0	  76.2	  61.7	  63.0	  61.3	 1005.8	 1006.0	 1005.6	  65.2	  69.2	  65.2	64130	 65617	 56486	Clear	  71.0	  71.5	  69.5	  0.00	  2.38	 37.12	
2017	09	20	00	57	59 	  68.8	  69.6	  67.1	  81.4	 88.5	 78.4	  65.4	  69.1	  65.4	  87.5	  89.0	  76.2	  61.7	  63.0	  61.3	 1005.8	 1006.0	 1005.6	  65.2	  69.2	  65.2	65616	 65617	 56486	Clear	  71.1	  71.5	  69.5	  0.00	  2.38	 37.12	
2017	09	20	00	57	29 	  68.8	  69.6	  67.1	  81.1	 88.5	 78.4	  65.5	  69.1	  65.4	  87.3	  89.0	  76.2	  61.7	  63.0	  61.3	 1005.8	 1006.0	 1005.6	  65.2	  69.2	  65.2	65616	 65617	 56486	Clear	  71.1	  71.5	  69.5	  0.00	  2.38	 37.12	
2017	09	20	00	56	59 	  68.8	  69.6	  67.1	  81.0	 88.5	 78.4	  65.5	  69.1	  65.4	  87.2	  89.0	  76.2	  61.7	  63.0	  61.3	 1005.8	 1006.0	 1005.6	  65.3	  69.2	  65.3	65616	 65617	 56486	Clear	  71.1	  71.5	  69.5	  0.00	  2.38	 37.12	
2017	09	20	00	56	29 	  68.8	  69.6	  67.1	  81.0	 88.5	 78.4	  65.5	  69.1	  65.4	  87.2	  89.0	  76.2	  61.8	  63.0	  61.3	 1005.8	 1006.0	 1005.6	  65.3	  69.2	  65.3	65616	 65617	 56486	Clear	  71.1	  71.5	  69.5	  0.00	  2.38	 37.12	
2017	09	20	00	55	59 	  68.8	  69.6	  67.1	  81.0	 88.5	 78.4	  65.5	  69.1	  65.4	  87.2	  89.0	  76.2	  61.8	  63.0	  61.3	 1005.8	 1006.0	 1005.6	  65.5	  69.2	  65.3	62362	 65617	 56486	Clear	  71.0	  71.5	  69.5	  0.00	  2.38	 37.12	
2017	09	20	00	55	29 	  68.8	  69.6	  67.1	  81.1	 88.5	 78.4	  65.6	  69.1	  65.4	  87.3	  89.0	  76.2	  61.8	  63.0	  61.3	 1005.8	 1006.0	 1005.6	  65.5	  69.2	  65.3	56486	 65617	 56486	Clear	  71.1	  71.5	  69.5	  0.00	  2.38	 37.12	
2017	09	20	00	54	59 	  68.7	  69.6	  67.1	  81.2	 88.5	 78.4	  65.6	  69.1	  65.4	  87.4	  89.0	  76.2	  61.9	  63.0	  61.3	 1005.8	 1006.0	 1005.6	  65.6	  69.2	  65.3	59101	 65617	 57887	Clear	  71.1	  71.5	  69.5	  0.00	  2.38	 37.12	
2017	09	20	00	54	29 	  68.6	  69.6	  67.1	  81.4	 88.5	 78.4	  65.6	  69.1	  65.4	  87.5	  89.0	  76.2	  61.9	  63.0	  61.3	 1005.8	 1006.0	 1005.6	  65.6	  69.2	  65.3	57887	 65617	 57887	Clear	  71.1	  71.5	  69.5	  0.00	  2.38	 37.12	
2017	09	20	00	53	59 	  68.6	  69.6	  67.1	  81.6	 88.5	 78.4	  65.6	  69.2	  65.4	  87.6	  89.0	  76.2	  61.9	  63.0	  61.3	 1005.8	 1006.0	 1005.6	  65.6	  69.2	  65.3	62522	 65617	 65430	Clear	  71.1	  71.5	  69.5	  0.00	  2.38	 37.12	
2017	09	20	00	53	29 	  68.5	  69.6	  67.1	  81.9	 88.5	 78.4	  65.5	  69.2	  65.4	  87.8	  89.0	  76.2	  61.9	  63.0	  61.3	 1005.8	 1006.0	 1005.6	  65.6	  69.2	  65.3	65616	 65617	 65430	Clear	  71.1	  71.5	  69.5	  0.00	  2.38	 37.12	
2017	09	20	00	52	59 	  68.4	  69.7	  67.1	  82.2	 88.5	 78.4	  65.5	  69.2	  65.4	  87.9	  89.0	  76.2	  62.0	  63.0	  61.3	 1005.8	 1006.0	 1005.6	  65.6	  69.2	  65.3	65616	 65617	 65430	Clear	  71.0	  71.5	  69.5	  0.00	  2.38	 37.12	
2017	09	20	00	52	29 	  68.3	  69.7	  67.1	  82.4	 88.5	 78.4	  65.5	  69.2	  65.4	  88.1	  89.0	  76.2	  62.0	  63.0	  61.3	 1005.8	 1006.0	 1005.6	  65.6	  69.2	  65.3	65616	 65617	 65430	Clear	  71.1	  71.5	  69.5	  0.00	  2.38	 37.12	
2017	09	20	00	51	59 	  68.2	  69.8	  67.1	  82.7	 88.5	 78.4	  65.5	  69.3	  65.4	  88.2	  89.0	  76.2	  62.0	  63.0	  61.3	 1005.8	 1006.0	 1005.6	  65.5	  69.2	  65.3	65616	 65617	 65430	Clear	  71.1	  71.5	  69.5	  0.00	  2.38	 37.12	
2017	09	20	00	51	29 	  68.1	  69.8	  67.1	  82.9	 88.5	 78.4	  65.5	  69.3	  65.4	  88.3	  89.0	  76.2	  62.0	  63.0	  61.3	 1005.8	 1006.0	 1005.6	  65.5	  69.2	  65.3	65616	 65617	 65430	Clear	  71.1	  71.5	  69.5	  0.00	  2.38	 37.12	
2017	09	20	00	50	59 	  68.0	  69.8	  67.1	  83.2	 88.5	 78.4	  65.5	  69.3	  65.4	  88.4	  89.0	  76.2	  62.0	  63.0	  61.3	 1005.8	 1006.0	 1005.6	  65.5	  69.2	  65.3	65616	 65617	 65430	Clear	  71.1	  71.5	  69.5	  0.00	  2.38	 37.12	
2017	09	20	00	50	29 	  68.0	  69.8	  67.1	  83.5	 88.5	 78.4	  65.5	  69.3	  65.4	  88.4	  89.0	  76.2	  62.0	  63.0	  61.3	 1005.8	 1006.0	 1005.6	  65.5	  69.2	  65.3	65616	 65617	 65430	Clear	  71.1	  71.5	  69.5	  0.00	  2.38	 37.12	
2017	09	20	00	49	59 	  67.9	  69.8	  67.1	  83.8	 88.5	 78.4	  65.5	  69.3	  65.4	  88.5	  89.0	  76.2	  62.0	  63.0	  61.3	 1005.8	 1006.0	 1005.6	  65.6	  69.2	  65.3	65616	 65617	 65430	Clear	  71.1	  71.5	  69.5	  0.00	  2.38	 37.12	
2017	09	20	00	49	29 	  67.8	  69.8	  67.1	  84.1	 88.5	 78.4	  65.4	  69.3	  65.4	  88.5	  89.0	  76.2	  62.0	  63.0	  61.3	 1005.8	 1006.0	 1005.6	  65.6	  69.2	  65.3	65616	 65617	 65430	Clear	  71.1	  71.5	  69.5	  0.00	  2.38	 37.12	
2017	09	20	00	48	59 	  67.7	  69.8	  67.1	  84.4	 88.5	 78.4	  65.4	  69.3	  65.4	  88.6	  89.0	  76.2	  62.0	  63.0	  61.3	 1005.8	 1006.0	 1005.6	  65.6	  69.3	  65.3	65616	 65617	 65430	Clear	  71.1	  71.5	  69.5	  0.00	  2.38	 37.12	
2017	09	20	00	48	29 	  67.6	  69.8	  67.1	  84.8	 88.5	 78.4	  65.4	  69.3	  65.4	  88.7	  89.0	  76.2	  62.0	  63.0	  61.3	 1005.8	 1006.0	 1005.6	  65.6	  69.3	  65.3	65616	 65617	 65430	Clear	  71.1	  71.5	  69.5	  0.00	  2.38	 37.12	
2017	09	20	00	47	59 	  67.5	  69.8	  67.1	  85.2	 88.5	 78.4	  65.4	  69.3	  65.4	  88.7	  89.0	  76.2	  62.0	  63.0	  61.3	 1005.8	 1006.0	 1005.6	  65.4	  69.3	  65.3	65616	 65617	 65430	Clear	  71.1	  71.5	  69.5	  0.00	  2.38	 37.12	
2017	09	20	00	47	29 	  67.4	  69.8	  67.1	  85.7	 88.5	 78.4	  65.4	  69.3	  65.4	  88.7	  89.0	  76.2	  62.0	  63.0	  61.3	 1005.8	 1006.0	 1005.6	  65.4	  69.3	  65.3	65616	 65617	 65430	Clear	  71.1	  71.5	  69.5	  0.00	  2.38	 37.12	
2017	09	20	00	46	59 	  67.3	  69.8	  67.1	  86.2	 88.5	 78.4	  65.4	  69.3	  65.4	  88.6	  89.0	  76.2	  62.0	  63.0	  61.3	 1005.7	 1006.0	 1005.6	  65.3	  69.3	  65.3	65616	 65617	 65430	Clear	  71.1	  71.5	  69.5	  0.00	  2.38	 37.12	
2017	09	20	00	46	29 	  67.2	  69.8	  67.1	  86.7	 88.5	 78.4	  65.4	  69.3	  65.4	  88.6	  89.0	  76.2	  62.0	  63.0	  61.3	 1005.8	 1006.0	 1005.6	  65.3	  69.3	  65.3	65616	 65617	 65430	Clear	  71.1	  71.5	  69.5	  0.00	  2.38	 37.12	
2017	09	20	00	45	59 	  67.2	  69.8	  67.1	  87.1	 88.5	 78.4	  65.5	  69.3	  65.5	  88.6	  89.0	  76.2	  62.0	  63.0	  61.3	 1005.8	 1006.0	 1005.6	  65.3	  69.3	  65.3	65616	 65617	 65430	Clear	  71.1	  71.5	  69.5	  0.00	  2.38	 37.12	
2017	09	20	00	45	29 	  67.1	  69.8	  67.1	  87.5	 88.5	 78.4	  65.5	  69.3	  65.5	  88.5	  89.0	  76.2	  62.1	  63.0	  61.3	 1005.7	 1006.0	 1005.6	  65.3	  69.3	  65.3	65616	 65617	 65430	Clear	  71.2	  71.5	  69.5	  0.00	  2.38	 37.12	
2017	09	20	00	44	59 	  67.1	  69.8	  67.1	  87.8	 88.5	 78.4	  65.5	  69.3	  65.5	  88.5	  89.0	  76.2	  62.1	  63.0	  61.3	 1005.7	 1006.0	 1005.6	  65.5	  69.3	  65.5	65616	 65617	 65430	Clear	  71.1	  71.5	  69.5	  0.00	  2.38	 37.12	
2017	09	20	00	44	29 	  67.1	  69.8	  67.1	  88.1	 88.5	 78.4	  65.5	  69.3	  65.5	  88.4	  89.0	  76.2	  62.1	  63.0	  61.3	 1005.7	 1006.0	 1005.6	  65.5	  69.3	  65.5	65616	 65617	 65430	Clear	  71.2	  71.5	  69.5	  0.00	  2.38	 37.12	
2017	09	20	00	43	59 	  67.1	  69.8	  67.1	  88.3	 88.5	 78.4	  65.6	  69.3	  65.6	  88.3	  89.0	  76.2	  62.2	  63.0	  61.3	 1005.7	 1006.0	 1005.6	  65.5	  69.3	  65.5	65616	 65617	 65430	Clear	  71.1	  71.5	  69.5	  0.00	  2.38	 37.12	
2017	09	20	00	43	29 	  67.1	  69.8	  67.1	  88.5	 88.5	 78.4	  65.6	  69.3	  65.6	  88.2	  89.0	  76.2	  62.2	  63.0	  61.3	 1005.7	 1006.0	 1005.6	  65.5	  69.3	  65.5	65616	 65617	 65430	Clear	  71.1	  71.5	  69.5	  0.00	  2.38	 37.12	
2017	09	20	00	42	59 	  67.1	  69.8	  67.2	  88.4	 88.3	 78.4	  65.7	  69.3	  65.7	  88.1	  89.0	  76.2	  62.3	  63.0	  61.3	 1005.7	 1006.0	 1005.6	  65.5	  69.3	  65.5	65616	 65617	 65430	Clear	  71.1	  71.5	  69.5	  0.00	  2.38	 37.12	
2017	09	20	00	42	29 	  67.2	  69.8	  67.2	  88.3	 88.3	 78.4	  65.7	  69.3	  65.7	  88.0	  89.0	  76.2	  62.4	  63.0	  61.3	 1005.7	 1006.0	 1005.6	  65.5	  69.3	  65.5	65616	 65617	 65430	Clear	  71.2	  71.5	  69.5	  0.00	  2.38	 37.12	
2017	09	20	00	41	59 	  67.2	  69.8	  67.3	  88.2	 88.0	 78.4	  65.8	  69.3	  65.8	  87.9	  89.0	  76.2	  62.5	  63.0	  61.3	 1005.7	 1006.0	 1005.6	  65.6	  69.3	  65.6	65616	 65617	 65430	Clear	  71.1	  71.5	  69.5	  0.00	  2.38	 37.12	
2017	09	20	00	41	29 	  67.3	  69.8	  67.3	  88.0	 88.0	 78.4	  65.8	  69.3	  65.8	  87.9	  89.0	  76.2	  62.6	  63.0	  61.3	 1005.7	 1006.0	 1005.6	  65.6	  69.3	  65.6	65616	 65617	 65430	Clear	  71.1	  71.5	  69.5	  0.00	  2.38	 37.12	
2017	09	20	00	40	59 	  67.3	  69.8	  67.4	  87.9	 87.6	 78.4	  65.9	  69.3	  66.0	  87.9	  89.0	  76.2	  62.6	  63.0	  61.3	 1005.7	 1006.0	 1005.6	  65.6	  69.3	  65.6	65616	 65617	 65430	Clear	  71.1	  71.5	  69.5	  0.00	  2.38	 37.12	
2017	09	20	00	40	30 	  67.4	  69.8	  67.4	  87.6	 87.6	 78.4	  66.0	  69.3	  66.0	  88.0	  89.0	  76.2	  62.7	  63.0	  61.3	 1005.7	 1006.0	 1005.6	  65.6	  69.3	  65.6	65616	 65617	 65430	Clear	  71.1	  71.5	  69.5	  0.00	  2.38	 37.12	
2017	09	20	00	40	00 	  67.5	  69.8	  67.6	  87.3	 87.0	 78.4	  66.0	  69.3	  66.1	  88.0	  89.0	  76.2	  62.8	  63.0	  61.3	 1005.7	 1006.0	 1005.6	  65.7	  69.3	  65.7	65616	 65617	 65430	Clear	  71.1	  71.5	  69.5	  0.00	  2.38	 37.12	
2017	09	20	00	39	30 	  67.6	  69.8	  67.6	  87.0	 87.0	 78.4	  66.1	  69.3	  66.1	  88.2	  89.0	  76.2	  62.8	  63.0	  61.3	 1005.7	 1006.0	 1005.6	  65.7	  69.3	  65.7	65616	 65617	 65430	Clear	  71.2	  71.5	  69.5	  0.00	  2.38	 37.12	
2017	09	20	00	39	00 	  67.7	  69.9	  67.8	  86.7	 86.2	 78.4	  66.1	  69.3	  66.2	  88.3	  89.0	  76.2	  62.9	  63.0	  61.3	 1005.7	 1006.0	 1005.6	  65.9	  69.3	  65.9	65616	 65617	 65430	Clear	  71.1	  71.5	  69.5	  0.00	  2.38	 37.12	
2017	09	20	00	38	30 	  67.8	  69.9	  67.8	  86.2	 86.2	 78.4	  66.2	  69.3	  66.2	  88.4	  89.0	  76.2	  62.9	  63.0	  61.3	 1005.7	 1006.0	 1005.6	  65.9	  69.3	  65.9	65616	 65617	 65430	Clear	  71.1	  71.5	  69.5	  0.00	  2.38	 37.12	
2017	09	20	00	38	00 	  67.9	  69.9	  68.0	  85.9	 85.5	 78.4	  66.2	  69.3	  66.3	  88.6	  89.0	  76.2	  62.9	  63.0	  61.3	 1005.7	 1006.0	 1005.6	  66.1	  69.3	  66.1	65616	 65617	 65430	Clear	  71.1	  71.5	  69.5	  0.00	  2.38	 37.12	
2017	09	20	00	37	30 	  68.0	  69.9	  68.0	  85.5	 85.5	 78.4	  66.3	  69.3	  66.3	  88.8	  89.0	  76.2	  62.9	  63.0	  61.3	 1005.7	 1006.0	 1005.6	  66.1	  69.3	  66.1	65616	 65617	 65430	Clear	  71.1	  71.5	  69.5	  0.00	  2.38	 37.12	
2017	09	20	00	37	00 	  68.2	  70.0	  68.3	  84.9	 84.4	 78.4	  66.3	  69.3	  66.3	  88.9	  89.0	  76.2	  62.9	  63.0	  61.3	 1005.7	 1006.0	 1005.6	  66.2	  69.3	  66.2	65616	 65617	 65430	Clear	  71.1	  71.5	  69.5	  0.00	  2.38	 37.12	
2017	09	20	00	36	30 	  68.3	  70.0	  68.3	  84.4	 84.4	 78.4	  66.3	  69.3	  66.3	  89.0	  89.0	  76.2	  62.9	  63.0	  61.3	 1005.7	 1006.0	 1005.6	  66.2	  69.3	  66.2	65429	 65617	 65430	Clear	  71.1	  71.5	  69.5	  0.00	  2.38	 37.12	
2017	09	20	00	36	00 	  68.4	  70.0	  68.5	  83.7	 83.2	 78.4	  66.4	  69.3	  66.4	  88.9	  88.9	  76.2	  62.9	  63.0	  61.3	 1005.7	 1006.0	 1005.6	  66.3	  69.3	  66.3	65616	 65617	 65617	Clear	  71.1	  71.5	  69.5	  0.00	  2.38	 37.12	
2017	09	20	00	35	30 	  68.5	  70.0	  68.5	  83.2	 83.2	 78.4	  66.4	  69.3	  66.4	  88.9	  88.9	  76.2	  62.9	  63.0	  61.3	 1005.7	 1006.0	 1005.6	  66.3	  69.3	  66.3	65616	 65617	 65617	Clear	  71.2	  71.5	  69.5	  0.00	  2.38	 37.12	
2017	09	20	00	35	00 	  68.6	  70.0	  68.6	  82.7	 82.7	 78.4	  66.4	  69.3	  66.5	  88.7	  88.5	  76.2	  62.8	  63.0	  61.3	 1005.6	 1006.0	 1005.6	  66.3	  69.3	  66.3	65616	 65617	 65617	Clear	  71.2	  71.5	  69.5	  0.00	  2.38	 37.12	
2017	09	20	00	34	30 	  68.6	  70.0	  68.6	  82.3	 82.7	 78.4	  66.5	  69.3	  66.5	  88.5	  88.5	  76.2	  62.8	  63.0	  61.3	 1005.6	 1006.0	 1005.6	  66.3	  69.3	  66.3	65616	 65617	 65617	Clear	  71.1	  71.5	  69.5	  0.00	  2.38	 37.12	
2017	09	20	00	34	00 	  68.7	  70.0	  68.6	  81.9	 82.7	 78.4	  66.5	  69.3	  66.6	  88.2	  88.0	  76.2	  62.7	  62.9	  61.3	 1005.6	 1006.0	 1005.6	  66.3	  69.3	  66.3	65616	 65617	 65617	Clear	  71.1	  71.5	  69.5	  0.00	  2.38	 37.12	
2017	09	20	00	33	30 	  68.8	  70.0	  68.6	  81.7	 82.7	 78.4	  66.6	  69.3	  66.6	  88.0	  88.0	  76.2	  62.7	  62.9	  61.3	 1005.6	 1006.0	 1005.6	  66.3	  69.3	  66.3	65616	 65617	 65617	Clear	  71.1	  71.5	  69.5	  0.00	  2.38	 37.12	
2017	09	20	00	33	00 	  68.8	  70.0	  68.6	  81.4	 82.7	 78.4	  66.7	  69.3	  66.7	  87.6	  87.3	  76.2	  62.6	  62.8	  61.3	 1005.6	 1006.0	 1005.6	  66.4	  69.3	  66.4	65616	 65617	 65617	Clear	  71.1	  71.5	  69.5	  0.00	  2.38	 37.12	
2017	09	20	00	32	30 	  68.8	  70.0	  68.6	  81.2	 82.7	 78.4	  66.7	  69.3	  66.7	  87.3	  87.3	  76.2	  62.6	  62.8	  61.3	 1005.6	 1006.0	 1005.6	  66.4	  69.3	  66.4	65616	 65617	 65617	Clear	  71.1	  71.5	  69.5	  0.00	  2.38	 37.12	
2017	09	20	00	32	00 	  68.8	  70.0	  68.6	  81.3	 82.7	 78.4	  66.8	  69.3	  66.9	  86.9	  86.5	  76.2	  62.5	  62.7	  61.3	 1005.6	 1006.0	 1005.6	  66.5	  69.3	  66.5	65616	 65617	 65617	Clear	  71.1	  71.5	  69.5	  0.00	  2.38	 37.12	
2017	09	20	00	31	30 	  68.7	  70.0	  68.6	  81.5	 82.7	 78.4	  66.9	  69.3	  66.9	  86.5	  86.5	  76.2	  62.5	  62.7	  61.3	 1005.6	 1006.0	 1005.6	  66.5	  69.3	  66.5	65616	 65617	 65617	Clear	  71.1	  71.5	  69.5	  0.00	  2.38	 37.12	
2017	09	20	00	31	00 	  68.7	  70.0	  68.6	  81.9	 82.7	 78.4	  66.9	  69.3	  67.0	  86.2	  85.8	  76.2	  62.4	  62.6	  61.3	 1005.6	 1006.0	 1005.6	  66.7	  69.3	  66.7	65616	 65617	 63540	Clear	  71.1	  71.5	  69.5	  0.00	  2.38	 37.12	
2017	09	20	00	30	30 	  68.7	  70.0	  68.6	  82.1	 82.7	 78.4	  67.0	  69.3	  67.0	  85.8	  85.8	  76.2	  62.4	  62.6	  61.3	 1005.6	 1006.0	 1005.6	  66.7	  69.3	  66.7	65616	 65617	 63540	Clear	  71.1	  71.5	  69.5	  0.00	  2.38	 37.12	
2017	09	20	00	30	00 	  68.7	  70.0	  68.6	  82.2	 82.7	 78.4	  67.0	  69.3	  67.1	  85.5	  85.2	  76.2	  62.3	  62.5	  61.3	 1005.6	 1006.0	 1005.6	  66.9	  69.3	  66.9	65616	 65617	 57149	Clear	  71.2	  71.5	  69.5	  0.00	  2.38	 37.12	
2017	09	20	00	29	30 	  68.6	  70.0	  68.6	  82.5	 82.7	 78.4	  67.1	  69.3	  67.1	  85.2	  85.2	  76.2	  62.3	  62.5	  61.3	 1005.6	 1006.0	 1005.6	  66.9	  69.3	  66.9	65616	 65617	 57149	Clear	  71.1	  71.5	  69.5	  0.00	  2.38	 37.12	
2017	09	20	00	29	00 	  68.6	  70.0	  68.6	  82.6	 82.7	 78.4	  67.1	  69.3	  67.2	  84.9	  84.7	  76.2	  62.2	  62.5	  61.3	 1005.6	 1006.0	 1005.6	  67.0	  69.3	  67.0	65616	 65617	 56329	Clear	  71.1	  71.5	  69.5	  0.00	  2.38	 37.12	
2017	09	20	00	28	30 	  68.6	  70.0	  68.6	  82.7	 82.7	 78.4	  67.2	  69.3	  67.2	  84.7	  84.7	  76.2	  62.2	  62.5	  61.3	 1005.6	 1006.0	 1005.6	  67.0	  69.3	  67.0	65616	 65617	 56329	Clear	  71.1	  71.5	  69.5	  0.00	  2.38	 37.12	
2017	09	20	00	28	00 	  68.7	  70.0	  68.7	  82.6	 82.6	 78.4	  67.2	  69.3	  67.2	  84.4	  84.2	  76.2	  62.2	  62.5	  61.3	 1005.6	 1006.0	 1005.6	  67.1	  69.3	  67.1	65616	 65617	 44534	Clear	  71.2	  71.5	  69.5	  0.00	  2.38	 37.12	
2017	09	20	00	27	30 	  68.7	  70.0	  68.7	  82.6	 82.6	 78.4	  67.2	  69.3	  67.2	  84.2	  84.2	  76.2	  62.2	  62.5	  61.3	 1005.6	 1006.0	 1005.6	  67.1	  69.3	  67.1	65616	 65617	 44534	Clear	  71.2	  71.5	  69.5	  0.00	  2.38	 37.12	
2017	09	20	00	27	00 	  68.7	  70.0	  68.8	  82.5	 82.4	 78.4	  67.3	  69.3	  67.3	  84.0	  84.2	  76.2	  62.1	  62.5	  61.3	 1005.6	 1006.0	 1005.6	  67.2	  69.3	  67.2	65616	 65617	 34777	Clear	  71.2	  71.5	  69.5	  0.00	  2.38	 37.12	
2017	09	20	00	26	30 	  68.8	  70.0	  68.8	  82.2	 82.4	 78.4	  67.3	  69.3	  67.3	  83.8	  84.2	  76.2	  62.1	  62.5	  61.3	 1005.7	 1006.0	 1005.6	  67.2	  69.3	  67.2	65616	 65617	 34777	Clear	  71.2	  71.5	  69.5	  0.00	  2.38	 37.12	
2017	09	20	00	26	00 	  68.8	  70.0	  68.8	  81.8	 82.4	 78.4	  67.3	  69.3	  67.1	  83.6	  84.9	  76.2	  62.1	  62.5	  61.3	 1005.7	 1006.0	 1005.7	  67.2	  69.3	  67.2	65616	 65617	 34777	Clear	  71.1	  71.5	  69.5	  0.00	  2.38	 37.12	
2017	09	20	00	25	30 	  68.8	  70.0	  68.8	  81.7	 82.4	 78.4	  67.4	  69.3	  67.1	  83.4	  84.9	  76.2	  62.0	  62.5	  61.3	 1005.7	 1006.0	 1005.7	  67.2	  69.3	  67.2	65616	 65617	 34777	Clear	  71.1	  71.5	  69.5	  0.00	  2.38	 37.12	
2017	09	20	00	25	00 	  68.9	  70.0	  68.9	  81.5	 82.4	 78.4	  67.4	  69.3	  67.0	  83.2	  85.7	  76.2	  62.0	  62.6	  61.3	 1005.7	 1006.0	 1005.7	  67.3	  69.3	  67.3	65616	 65617	 34777	Clear	  71.1	  71.5	  69.5	  0.00	  2.38	 37.12	
2017	09	20	00	24	30 	  68.9	  70.0	  68.9	  81.3	 82.4	 78.4	  67.5	  69.3	  67.0	  83.0	  85.7	  76.2	  62.0	  62.6	  61.3	 1005.7	 1006.0	 1005.7	  67.3	  69.3	  67.3	65616	 65617	 34777	Clear	  71.2	  71.5	  69.5	  0.00	  2.38	 37.12	
2017	09	20	00	24	00 	  68.9	  70.0	  68.9	  81.1	 82.4	 78.4	  67.5	  69.3	  66.8	  82.8	  86.6	  76.2	  62.0	  62.7	  61.3	 1005.7	 1006.0	 1005.7	  67.3	  69.3	  67.3	65616	 65617	 27238	Clear	  71.2	  71.5	  69.5	  0.00	  2.38	 37.12	
2017	09	20	00	23	30 	  68.9	  70.0	  68.9	  81.0	 82.4	 78.4	  67.6	  69.3	  66.8	  82.6	  86.6	  76.2	  61.9	  62.7	  61.3	 1005.7	 1006.0	 1005.7	  67.3	  69.3	  67.3	65616	 65617	 27238	Clear	  71.1	  71.5	  69.5	  0.00	  2.38	 37.12	
2017	09	20	00	23	00 	  68.9	  70.0	  68.9	  80.9	 82.4	 78.4	  67.6	  69.3	  66.8	  82.4	  87.5	  76.2	  61.9	  63.0	  61.3	 1005.7	 1006.0	 1005.7	  67.4	  69.3	  67.2	65616	 65617	 27238	Clear	  71.2	  71.5	  69.5	  0.00	  2.38	 37.12	
2017	09	20	00	22	30 	  68.9	  70.0	  68.9	  80.9	 82.4	 78.4	  67.7	  69.3	  66.8	  82.1	  87.5	  76.2	  61.9	  63.0	  61.3	 1005.7	 1006.0	 1005.7	  67.4	  69.3	  67.2	65616	 65617	 27238	Clear	  71.2	  71.5	  69.5	  0.00	  2.38	 37.12	
2017	09	20	00	22	00 	  68.9	  70.0	  68.9	  80.9	 82.4	 78.4	  67.7	  69.3	  66.8	  81.8	  87.9	  76.2	  61.9	  63.2	  61.3	 1005.7	 1006.0	 1005.7	  67.5	  69.3	  66.8	65616	 65617	 27238	Clear	  71.2	  71.5	  69.5	  0.00	  2.38	 37.12	
2017	09	20	00	21	30 	  68.9	  70.0	  68.9	  80.8	 82.4	 78.4	  67.8	  69.3	  66.8	  81.6	  87.9	  76.2	  61.8	  63.2	  61.3	 1005.7	 1006.0	 1005.7	  67.5	  69.3	  66.8	65616	 65617	 27238	Clear	  71.1	  71.5	  69.5	  0.00	  2.38	 37.12	
2017	09	20	00	21	00 	  68.9	  70.0	  69.0	  80.8	 82.4	 78.4	  67.9	  69.3	  66.8	  81.2	  88.3	  76.2	  61.8	  63.3	  61.3	 1005.7	 1006.0	 1005.7	  67.6	  69.3	  66.6	65616	 65617	 27238	Clear	  71.2	  71.5	  69.5	  0.00	  2.38	 37.12	
2017	09	20	00	20	30 	  69.0	  70.0	  69.0	  80.8	 82.4	 78.4	  68.0	  69.3	  66.8	  80.9	  88.3	  76.2	  61.8	  63.3	  61.3	 1005.7	 1006.0	 1005.7	  67.6	  69.3	  66.6	65616	 65617	 27238	Clear	  71.2	  71.5	  69.5	  0.00	  2.38	 37.12	
2017	09	20	00	20	00 	  69.0	  70.0	  69.1	  80.7	 82.4	 78.4	  68.1	  69.3	  66.8	  80.6	  88.4	  76.2	  61.7	  63.4	  61.3	 1005.7	 1006.0	 1005.7	  67.7	  69.3	  66.6	65616	 65617	 19741	Clear	  71.2	  71.5	  69.5	  0.00	  2.38	 37.12	
2017	09	20	00	19	30 	  69.1	  70.0	  69.1	  80.5	 82.4	 78.4	  68.2	  69.3	  66.8	  80.3	  88.4	  76.2	  61.7	  63.4	  61.3	 1005.7	 1006.0	 1005.7	  67.7	  69.3	  66.6	65616	 65617	 19741	Clear	  71.2	  71.5	  69.5	  0.00	  2.38	 37.12	
2017	09	20	00	19	00 	  69.1	  70.0	  69.1	  80.3	 82.4	 78.4	  68.3	  69.3	  66.8	  79.9	  88.4	  76.2	  61.6	  63.4	  61.3	 1005.7	 1006.0	 1005.7	  67.8	  69.3	  66.6	65616	 65617	 19741	Clear	  71.2	  71.5	  69.5	  0.00	  2.38	 37.12	
2017	09	20	00	18	30 	  69.2	  70.0	  69.1	  80.2	 82.4	 78.4	  68.4	  69.3	  66.8	  79.5	  88.4	  76.2	  61.6	  63.4	  61.3	 1005.7	 1006.0	 1005.7	  67.8	  69.3	  66.6	65616	 65617	 19741	Clear	  71.2	  71.5	  69.5	  0.00	  2.38	 37.12	
2017	09	20	00	18	00 	  69.2	  70.0	  69.1	  79.9	 82.4	 78.4	  68.5	  69.3	  66.8	  79.1	  88.4	  76.2	  61.5	  63.4	  61.3	 1005.7	 1006.1	 1005.7	  68.1	  69.3	  66.6	65616	 65617	 19741	Clear	  71.2	  71.5	  69.5	  0.00	  2.38	 37.12	
2017	09	20	00	17	30 	  69.3	  70.0	  69.1	  79.7	 82.4	 78.4	  68.6	  69.3	  66.8	  78.7	  88.4	  76.2	  61.5	  63.4	  61.3	 1005.7	 1006.1	 1005.7	  68.1	  69.3	  66.6	65616	 65617	 19741	Clear	  71.2	  71.5	  69.5	  0.00	  2.38	 37.12	
2017	09	20	00	17	00 	  69.3	  70.0	  69.1	  79.6	 82.4	 78.4	  68.7	  69.3	  66.8	  78.3	  88.4	  76.2	  61.5	  63.4	  61.3	 1005.7	 1006.1	 1005.7	  68.3	  69.3	  66.6	65616	 65617	 19741	Clear	  71.2	  71.5	  69.5	  0.00	  2.38	 37.12	
2017	09	20	00	16	30 	  69.4	  70.0	  69.1	  79.3	 82.4	 78.4	  68.8	  69.3	  66.8	  78.0	  88.4	  76.2	  61.4	  63.4	  61.3	 1005.7	 1006.1	 1005.7	  68.3	  69.3	  66.6	65616	 65617	 19741	Clear	  71.2	  71.5	  69.5	  0.00	  2.38	 37.12	
2017	09	20	00	16	00 	  69.5	  70.0	  69.1	  79.1	 82.4	 78.4	  68.9	  69.3	  66.8	  77.6	  88.4	  76.2	  61.4	  63.4	  61.3	 1005.7	 1006.1	 1005.7	  68.6	  69.3	  66.6	65616	 65617	 19741	Clear	  71.2	  71.5	  69.5	  0.00	  2.38	 37.12	
2017	09	20	00	15	30 	  69.5	  70.0	  69.1	  78.9	 82.4	 78.4	  69.0	  69.3	  66.8	  77.2	  88.4	  76.2	  61.4	  63.4	  61.3	 1005.7	 1006.1	 1005.7	  68.6	  69.3	  66.6	65616	 65617	 19741	Clear	  71.2	  71.5	  69.5	  0.00	  2.38	 37.12	
2017	09	20	00	15	00 	  69.5	  70.0	  69.1	  78.7	 82.4	 78.4	  69.0	  69.3	  66.8	  76.9	  88.4	  76.2	  61.4	  63.4	  61.3	 1005.7	 1006.1	 1005.7	  68.7	  69.3	  66.6	65616	 65617	 19741	Clear	  71.2	  71.5	  69.5	  0.00	  2.38	 37.12	
2017	09	20	00	14	30 	  69.6	  70.0	  69.1	  78.6	 82.4	 78.4	  69.1	  69.3	  66.8	  76.7	  88.4	  76.2	  61.4	  63.4	  61.3	 1005.7	 1006.1	 1005.7	  68.7	  69.3	  66.6	65616	 65617	 19741	Clear	  71.2	  71.5	  69.5	  0.00	  2.38	 37.12	
2017	09	20	00	14	00 	  69.6	  70.0	  69.1	  78.5	 82.8	 78.4	  69.1	  69.3	  66.8	  76.4	  88.4	  76.2	  61.4	  63.4	  61.3	 1005.7	 1006.1	 1005.7	  69.0	  69.3	  66.6	65616	 65617	 19741	Clear	  71.2	  71.5	  69.5	  0.00	  2.38	 37.12	
2017	09	20	00	13	30 	  69.6	  70.0	  69.1	  78.4	 82.8	 78.4	  69.1	  69.3	  66.8	  76.3	  88.4	  76.2	  61.4	  63.4	  61.3	 1005.8	 1006.1	 1005.7	  69.0	  69.3	  66.6	65616	 65617	 19741	Clear	  71.2	  71.5	  69.5	  0.00	  2.38	 37.12	
2017	09	20	00	13	00 	  69.6	  70.0	  69.0	  78.4	 83.6	 78.4	  69.1	  69.3	  66.8	  76.2	  88.4	  76.3	  61.4	  63.4	  61.3	 1005.8	 1006.1	 1005.8	  69.1	  69.3	  66.6	65616	 65617	 19741	Clear	  71.2	  71.5	  69.5	  0.00	  2.38	 37.12	
2017	09	20	00	12	30 	  69.6	  70.0	  69.0	  78.4	 83.6	 78.4	  69.1	  69.3	  66.8	  76.3	  88.4	  76.3	  61.5	  63.4	  61.3	 1005.8	 1006.1	 1005.8	  69.1	  69.3	  66.6	65616	 65617	 19741	Clear	  71.2	  71.5	  69.5	  0.00	  2.38	 37.12	
2017	09	20	00	12	00 	  69.6	  70.0	  68.9	  78.4	 84.2	 78.4	  69.1	  69.3	  66.8	  76.3	  88.4	  76.4	  61.5	  63.4	  61.4	 1005.8	 1006.1	 1005.8	  69.2	  69.3	  66.6	65616	 65617	 19741	Clear	  71.2	  71.5	  69.5	  0.00	  2.38	 37.12	
2017	09	20	00	11	30 	  69.6	  70.0	  68.9	  78.4	 84.2	 78.4	  69.1	  69.3	  66.8	  76.4	  88.4	  76.4	  61.6	  63.4	  61.4	 1005.8	 1006.1	 1005.8	  69.2	  69.3	  66.6	65616	 65617	 19741	Clear	  71.2	  71.5	  69.5	  0.00	  2.38	 37.12	
2017	09	20	00	11	00 	  69.6	  70.0	  68.7	  78.5	 85.0	 78.6	  69.1	  69.3	  66.8	  76.5	  88.4	  76.7	  61.6	  63.4	  61.4	 1005.8	 1006.1	 1005.8	  69.2	  69.3	  66.6	65616	 65617	 19741	Clear	  71.2	  71.5	  69.5	  0.00	  2.38	 37.12	
2017	09	20	00	10	30 	  69.6	  70.0	  68.7	  78.6	 85.0	 78.6	  69.0	  69.3	  66.8	  76.7	  88.4	  76.7	  61.6	  63.4	  61.4	 1005.8	 1006.1	 1005.8	  69.2	  69.3	  66.6	65616	 65617	 19741	Clear	  71.2	  71.5	  69.5	  0.00	  2.38	 37.12	
2017	09	20	00	10	00 	  69.6	  70.0	  68.7	  78.8	 85.6	 78.9	  69.0	  69.3	  66.8	  76.9	  88.4	  77.1	  61.7	  63.4	  61.5	 1005.8	 1006.1	 1005.8	  69.1	  69.3	  66.6	65616	 65617	 19741	Clear	  71.2	  71.5	  69.5	  0.00	  2.38	 37.12	
2017	09	20	00	09	30 	  69.6	  70.0	  68.7	  78.9	 85.6	 78.9	  69.0	  69.3	  66.8	  77.1	  88.4	  77.1	  61.7	  63.4	  61.5	 1005.8	 1006.1	 1005.8	  69.1	  69.3	  66.6	65616	 65617	 19741	Clear	  71.2	  71.5	  69.5	  0.00	  2.38	 37.12	
2017	09	20	00	09	00 	  69.5	  70.0	  68.6	  79.1	 86.0	 79.2	  68.9	  69.3	  66.8	  77.4	  88.4	  77.7	  61.8	  63.4	  61.6	 1005.8	 1006.1	 1005.8	  69.1	  69.3	  66.6	65616	 65617	 19741	Clear	  71.2	  71.5	  69.5	  0.00	  2.38	 37.12	
2017	09	20	00	08	30 	  69.5	  70.0	  68.6	  79.2	 86.0	 79.2	  68.9	  69.3	  66.8	  77.7	  88.4	  77.7	  61.8	  63.4	  61.6	 1005.9	 1006.1	 1005.8	  69.1	  69.3	  66.6	65616	 65617	 19741	Clear	  71.2	  71.5	  69.5	  0.00	  2.38	 37.12	
2017	09	20	00	08	00 	  69.5	  70.0	  68.6	  79.4	 86.0	 79.5	  68.9	  69.3	  66.8	  77.9	  88.4	  78.1	  61.9	  63.4	  61.7	 1005.9	 1006.1	 1005.8	  69.0	  69.3	  66.6	65616	 65617	 19741	Clear	  71.2	  71.5	  69.5	  0.00	  2.38	 37.12	
2017	09	20	00	07	30 	  69.4	  70.0	  68.6	  79.6	 86.0	 79.5	  68.8	  69.3	  66.8	  78.1	  88.4	  78.1	  61.9	  63.4	  61.7	 1005.9	 1006.1	 1005.8	  69.0	  69.3	  66.6	65616	 65617	 19741	Clear	  71.2	  71.5	  69.5	  0.00	  2.38	 37.12	
2017	09	20	00	07	00 	  69.4	  70.0	  68.6	  79.9	 86.0	 79.5	  68.8	  69.3	  66.8	  78.3	  88.4	  78.5	  62.0	  63.4	  61.8	 1005.9	 1006.1	 1005.8	  68.9	  69.3	  66.6	65616	 65617	 19741	Clear	  71.2	  71.5	  69.5	  0.00	  2.38	 37.12	
2017	09	20	00	06	30 	  69.4	  70.0	  68.6	  80.1	 86.0	 79.5	  68.8	  69.3	  66.8	  78.5	  88.4	  78.5	  62.0	  63.4	  61.8	 1005.9	 1006.1	 1005.8	  68.9	  69.3	  66.6	65616	 65617	 19741	Clear	  71.2	  71.5	  69.5	  0.00	  2.38	 37.12	
2017	09	20	00	06	00 	  69.3	  70.0	  68.6	  80.3	 86.0	 79.5	  68.7	  69.3	  66.8	  78.7	  88.4	  78.6	  62.1	  63.4	  61.9	 1005.9	 1006.1	 1005.8	  68.5	  69.3	  66.6	65616	 65617	 19741	Clear	  71.2	  71.5	  69.5	  0.00	  2.38	 37.12	
2017	09	20	00	05	30 	  69.3	  70.0	  68.6	  80.6	 86.0	 79.5	  68.7	  69.3	  66.8	  78.9	  88.4	  78.6	  62.1	  63.4	  61.9	 1005.9	 1006.1	 1005.8	  68.5	  69.3	  66.6	65616	 65617	 19741	Clear	  71.2	  71.5	  69.5	  0.00	  2.38	 37.12	
2017	09	20	00	05	00 	  69.3	  70.0	  68.6	  80.8	 86.0	 79.5	  68.7	  69.3	  66.8	  79.1	  88.4	  78.6	  62.2	  63.4	  62.0	 1005.9	 1006.1	 1005.8	  68.4	  69.3	  66.6	65616	 65617	 19741	Clear	  71.2	  71.5	  69.5	  0.00	  2.38	 37.12	
2017	09	20	00	04	30 	  69.2	  70.0	  68.6	  81.0	 86.0	 79.5	  68.7	  69.3	  66.8	  79.2	  88.4	  78.6	  62.2	  63.4	  62.0	 1005.9	 1006.1	 1005.8	  68.4	  69.3	  66.6	65616	 65617	 19741	Clear	  71.2	  71.5	  69.5	  0.00	  2.38	 37.12	
2017	09	20	00	04	00 	  69.2	  70.0	  68.6	  81.2	 86.0	 79.5	  68.7	  69.3	  66.8	  79.3	  88.4	  78.6	  62.3	  63.4	  62.0	 1005.9	 1006.1	 1005.8	  68.4	  69.3	  66.6	65616	 65617	 19741	Clear	  71.2	  71.5	  69.5	  0.00	  2.38	 37.12	
2017	09	20	00	03	30 	  69.2	  70.0	  68.6	  81.4	 86.0	 79.5	  68.7	  69.3	  66.8	  79.4	  88.4	  78.6	  62.3	  63.4	  62.0	 1005.9	 1006.1	 1005.8	  68.4	  69.3	  66.6	65616	 65617	 19741	Clear	  71.2	  71.5	  69.5	  0.00	  2.38	 37.12	
2017	09	20	00	03	00 	  69.1	  70.0	  68.6	  81.7	 86.0	 79.5	  68.7	  69.3	  66.8	  79.6	  88.4	  78.6	  62.4	  63.4	  62.1	 1005.9	 1006.1	 1005.8	  68.4	  69.3	  66.6	65616	 65617	 19741	Clear	  71.2	  71.5	  69.5	  0.00	  2.38	 37.12	
2017	09	20	00	02	30 	  69.1	  70.0	  68.6	  81.9	 86.0	 79.5	  68.7	  69.3	  66.8	  79.9	  88.4	  78.6	  62.4	  63.4	  62.1	 1005.9	 1006.1	 1005.8	  68.4	  69.3	  66.6	65616	 65617	 19741	Clear	  71.2	  71.5	  69.5	  0.00	  2.38	 37.12	
2017	09	20	00	02	00 	  69.1	  70.0	  68.6	  82.1	 86.0	 79.5	  68.7	  69.3	  66.8	  80.0	  88.4	  78.6	  62.4	  63.4	  62.1	 1005.9	 1006.1	 1005.8	  68.6	  69.3	  66.6	65616	 65617	 19741	Clear	  71.2	  71.5	  69.5	  0.00	  2.38	 37.12	
2017	09	20	00	01	30 	  69.1	  70.0	  68.6	  82.2	 86.0	 79.5	  68.7	  69.3	  66.8	  80.1	  88.4	  78.6	  62.4	  63.4	  62.1	 1005.9	 1006.1	 1005.8	  68.6	  69.3	  66.6	65616	 65617	 19741	Clear	  71.2	  71.5	  69.5	  0.00	  2.38	 37.12	
2017	09	20	00	01	00 	  69.1	  70.0	  68.6	  82.3	 86.0	 79.5	  68.7	  69.3	  66.8	  80.2	  88.4	  78.6	  62.5	  63.4	  62.1	 1005.9	 1006.1	 1005.8	  68.5	  69.3	  66.6	65616	 65617	 19741	Clear	  71.2	  71.5	  69.5	  0.00	  2.38	 37.12	
2017	09	20	00	00	30 	  69.1	  70.0	  68.6	  82.3	 86.0	 79.5	  68.7	  69.3	  66.8	  80.2	  88.4	  78.6	  62.5	  63.4	  62.1	 1005.9	 1006.1	 1005.8	  68.5	  69.3	  66.6	65616	 65617	 19741	Clear	  71.2	  71.5	  69.5	  0.00	  2.38	 37.12	
2017	09	20	00	00	00 	  69.2	  70.0	  68.6	  82.3	 86.0	 79.5	  68.7	  69.3	  66.8	  80.3	  88.4	  78.6	  62.5	  63.4	  62.1	 1006.0	 1006.1	 1005.8	  68.6	  69.3	  66.6	65616	 65617	 19741	Clear	  71.2	  71.5	  69.5	  0.00	  2.38	 37.12	
2017	09	19	23	59	30 	  69.2	  70.0	  68.6	  82.4	 86.0	 79.5	  68.8	  69.3	  66.8	  80.4	  88.4	  78.6	  62.5	  63.4	  62.1	 1006.0	 1006.1	 1005.8	  68.6	  69.3	  66.6	65616	 65617	 19741	Clear	  71.2	  71.5	  69.5	  0.00	  2.38	 37.12	
2017	09	19	23	59	00 	  69.2	  70.0	  68.6	  82.4	 86.0	 79.5	  68.8	  69.3	  66.8	  80.4	  88.4	  78.6	  62.5	  63.4	  62.1	 1006.0	 1006.1	 1005.8	  68.7	  69.3	  66.6	65616	 65617	 19741	Clear	  71.2	  71.5	  69.5	  0.00	  2.38	 37.12	
2017	09	19	23	58	30 	  69.2	  70.0	  68.6	  82.4	 86.0	 79.5	  68.8	  69.3	  66.8	  80.4	  88.4	  78.6	  62.5	  63.4	  62.1	 1006.0	 1006.1	 1005.8	  68.7	  69.3	  66.6	65616	 65617	 19741	Clear	  71.2	  71.5	  69.5	  0.00	  2.38	 37.12	
2017	09	19	23	58	00 	  69.3	  70.0	  68.6	  82.3	 86.0	 79.5	  68.8	  69.3	  66.8	  80.2	  88.4	  78.6	  62.4	  63.4	  62.1	 1006.0	 1006.2	 1005.8	  68.8	  69.3	  66.6	65616	 65617	 19741	Clear	  71.2	  71.5	  69.5	  0.00	  2.38	 37.12	
2017	09	19	23	57	30 	  69.3	  70.0	  68.6	  82.1	 86.0	 79.5	  68.9	  69.3	  66.8	  80.1	  88.4	  78.6	  62.4	  63.4	  62.1	 1006.0	 1006.2	 1005.8	  68.8	  69.3	  66.6	65616	 65617	 19741	Clear	  71.2	  71.5	  69.5	  0.00	  2.38	 37.12	
2017	09	19	23	57	00 	  69.3	  70.0	  68.6	  82.0	 86.0	 79.5	  68.9	  69.3	  66.8	  80.0	  88.4	  78.6	  62.4	  63.4	  62.1	 1006.0	 1006.2	 1005.8	  68.8	  69.3	  66.6	65616	 65617	 19741	Clear	  71.2	  71.5	  69.5	  0.00	  2.38	 37.12	
2017	09	19	23	56	30 	  69.4	  70.0	  68.6	  81.9	 86.0	 79.5	  68.9	  69.3	  66.8	  79.9	  88.4	  78.6	  62.4	  63.4	  62.1	 1006.0	 1006.2	 1005.8	  68.8	  69.3	  66.6	65616	 65617	 19741	Clear	  71.2	  71.5	  69.5	  0.00	  2.38	 37.12	
2017	09	19	23	56	00 	  69.4	  70.0	  68.6	  81.9	 86.0	 79.5	  69.0	  69.3	  66.8	  79.7	  88.4	  78.6	  62.4	  63.4	  62.1	 1006.0	 1006.2	 1005.8	  68.8	  69.3	  66.6	65616	 65617	 19741	Clear	  71.2	  71.5	  69.5	  0.00	  2.38	 37.12	
2017	09	19	23	55	30 	  69.4	  70.0	  68.6	  81.8	 86.0	 79.5	  69.0	  69.3	  66.8	  79.6	  88.4	  78.6	  62.4	  63.4	  62.1	 1006.0	 1006.2	 1005.8	  68.8	  69.3	  66.6	65616	 65617	 19741	Clear	  71.2	  71.5	  69.5	  0.00	  2.38	 37.12	
2017	09	19	23	55	00 	  69.5	  70.0	  68.6	  81.6	 86.0	 79.5	  69.1	  69.3	  66.8	  79.4	  88.4	  78.6	  62.3	  63.4	  62.1	 1006.0	 1006.2	 1005.8	  68.9	  69.3	  66.6	65616	 65617	 19741	Clear	  71.2	  71.5	  69.5	  0.00	  2.38	 37.12	
2017	09	19	23	54	30 	  69.5	  70.0	  68.6	  81.5	 86.0	 79.5	  69.1	  69.3	  66.8	  79.2	  88.4	  78.6	  62.3	  63.4	  62.1	 1006.0	 1006.2	 1005.8	  68.9	  69.3	  66.6	65616	 65617	 19741	Clear	  71.2	  71.5	  69.5	  0.00	  2.38	 37.12	
2017	09	19	23	54	00 	  69.6	  70.0	  68.6	  81.2	 86.0	 79.5	  69.2	  69.3	  66.8	  79.0	  88.4	  78.6	  62.3	  63.4	  62.1	 1006.0	 1006.2	 1005.8	  69.0	  69.3	  66.6	65616	 65617	 19741	Clear	  71.2	  71.5	  69.5	  0.00	  2.38	 37.12	
2017	09	19	23	53	30 	  69.6	  70.0	  68.6	  81.0	 86.0	 79.5	  69.2	  69.3	  66.8	  78.8	  88.4	  78.6	  62.3	  63.4	  62.1	 1006.0	 1006.2	 1005.8	  69.0	  69.3	  66.6	65616	 65617	 19741	Clear	  71.2	  71.5	  69.5	  0.00	  2.38	 37.12	
2017	09	19	23	53	00 	  69.7	  70.0	  68.6	  80.9	 86.2	 79.5	  69.2	  69.3	  66.8	  78.7	  88.4	  78.6	  62.3	  63.4	  62.1	 1006.0	 1006.2	 1005.8	  69.1	  69.3	  66.6	65616	 65617	 19741	Clear	  71.2	  71.5	  69.5	  0.00	  2.38	 37.12	
2017	09	19	23	52	30 	  69.7	  70.0	  68.6	  80.7	 86.2	 79.5	  69.3	  69.3	  66.8	  78.6	  88.4	  78.6	  62.3	  63.4	  62.1	 1006.0	 1006.2	 1005.8	  69.1	  69.3	  66.6	65616	 65617	 19741	Clear	  71.2	  71.5	  69.5	  0.00	  2.38	 37.12	
2017	09	19	23	52	00 	  69.8	  70.0	  68.6	  80.6	 86.3	 79.5	  69.3	  69.3	  66.8	  78.6	  88.4	  78.6	  62.3	  63.4	  62.1	 1006.0	 1006.2	 1005.8	  69.1	  69.3	  66.6	65616	 65617	 19741	Clear	  71.2	  71.5	  69.5	  0.00	  2.38	 37.12	
2017	09	19	23	51	30 	  69.8	  70.0	  68.6	  80.5	 86.3	 79.5	  69.3	  69.3	  66.8	  78.6	  88.4	  78.6	  62.3	  63.4	  62.1	 1006.0	 1006.2	 1005.8	  69.1	  69.3	  66.6	65616	 65617	 19741	Clear	  71.2	  71.5	  69.5	  0.00	  2.38	 37.12	
2017	09	19	23	51	00 	  69.8	  70.0	  68.6	  80.4	 86.4	 79.5	  69.3	  69.3	  66.8	  78.6	  88.4	  78.6	  62.3	  63.4	  62.1	 1006.0	 1006.2	 1005.8	  69.1	  69.3	  66.6	65616	 65617	 19741	Clear	  71.2	  71.5	  69.5	  0.00	  2.38	 37.12	
2017	09	19	23	50	30 	  69.8	  70.0	  68.6	  80.4	 86.4	 79.5	  69.3	  69.3	  66.8	  78.6	  88.4	  78.6	  62.3	  63.4	  62.1	 1006.0	 1006.2	 1005.8	  69.1	  69.3	  66.6	65616	 65617	 19741	Clear	  71.2	  71.5	  69.5	  0.00	  2.38	 37.12	
2017	09	19	23	50	00 	  69.8	  70.0	  68.6	  80.5	 86.4	 79.5	  69.2	  69.2	  66.8	  78.6	  88.4	  78.7	  62.3	  63.4	  62.1	 1006.0	 1006.2	 1005.8	  69.3	  69.3	  66.6	65616	 65617	 19741	Clear	  71.2	  71.5	  69.5	  0.00	  2.38	 37.12	
2017	09	19	23	49	30 	  69.7	  70.0	  68.6	  80.6	 86.4	 79.5	  69.2	  69.2	  66.8	  78.7	  88.4	  78.7	  62.3	  63.4	  62.1	 1006.0	 1006.2	 1005.8	  69.3	  69.3	  66.6	65616	 65617	 19741	Clear	  71.2	  71.5	  69.5	  0.00	  2.38	 37.12	
2017	09	19	23	49	00 	  69.7	  70.0	  68.6	  80.7	 86.4	 79.5	  69.2	  69.1	  66.8	  78.8	  88.4	  78.7	  62.4	  63.4	  62.1	 1006.0	 1006.2	 1005.8	  69.3	  69.3	  66.6	65616	 65617	 19741	Clear	  71.2	  71.5	  69.5	  0.00	  2.38	 37.12	
2017	09	19	23	48	30 	  69.7	  70.0	  68.6	  80.9	 86.4	 79.5	  69.1	  69.1	  66.8	  79.0	  88.4	  78.7	  62.4	  63.4	  62.1	 1006.0	 1006.2	 1005.8	  69.3	  69.3	  66.6	65616	 65617	 19741	Clear	  71.2	  71.5	  69.5	  0.00	  2.38	 37.12	
2017	09	19	23	48	00 	  69.6	  70.0	  68.6	  81.0	 86.4	 79.5	  69.1	  69.0	  66.8	  79.2	  88.4	  78.7	  62.4	  63.4	  62.1	 1005.9	 1006.2	 1005.8	  69.3	  69.3	  66.6	65616	 65617	 19741	Clear	  71.2	  71.5	  69.5	  0.00	  2.38	 37.12	
2017	09	19	23	47	30 	  69.6	  70.0	  68.6	  81.2	 86.4	 79.5	  69.0	  69.0	  66.8	  79.3	  88.4	  78.7	  62.4	  63.4	  62.1	 1005.9	 1006.2	 1005.8	  69.3	  69.3	  66.6	65616	 65617	 19741	Clear	  71.2	  71.5	  69.5	  0.00	  2.38	 37.12	
2017	09	19	23	47	00 	  69.6	  70.0	  68.6	  81.3	 86.4	 79.5	  69.0	  69.0	  66.8	  79.4	  88.4	  78.7	  62.4	  63.4	  62.1	 1005.9	 1006.2	 1005.8	  69.2	  69.2	  66.6	65616	 65617	 19741	Clear	  71.2	  71.5	  69.5	  0.00	  2.38	 37.12	
2017	09	19	23	46	30 	  69.5	  70.0	  68.6	  81.4	 86.4	 79.5	  68.9	  69.0	  66.8	  79.6	  88.4	  78.7	  62.3	  63.4	  62.1	 1005.9	 1006.2	 1005.8	  69.2	  69.2	  66.6	65616	 65617	 19741	Clear	  71.2	  71.5	  69.5	  0.00	  2.38	 37.12	
2017	09	19	23	46	00 	  69.5	  70.0	  68.6	  81.5	 86.4	 79.5	  68.8	  69.0	  66.8	  79.8	  88.4	  78.7	  62.3	  63.4	  62.1	 1005.9	 1006.2	 1005.8	  69.1	  69.1	  66.6	65616	 65617	 19741	Clear	  71.3	  71.5	  69.5	  0.00	  2.38	 37.12	
2017	09	19	23	45	30 	  69.5	  70.0	  68.6	  81.6	 86.4	 79.5	  68.8	  69.0	  66.8	  80.1	  88.4	  78.7	  62.3	  63.4	  62.1	 1005.9	 1006.2	 1005.8	  69.1	  69.1	  66.6	65616	 65617	 19741	Clear	  71.2	  71.5	  69.5	  0.00	  2.38	 37.12	
2017	09	19	23	45	00 	  69.5	  70.0	  68.6	  81.6	 86.4	 79.5	  68.7	  69.0	  66.8	  80.3	  88.4	  78.7	  62.3	  63.4	  62.1	 1005.9	 1006.2	 1005.8	  69.0	  69.1	  66.6	65616	 65617	 19741	Clear	  71.2	  71.5	  69.5	  0.00	  2.38	 37.12	
2017	09	19	23	44	30 	  69.5	  70.0	  68.6	  81.6	 86.4	 79.5	  68.6	  69.0	  66.8	  80.5	  88.4	  78.7	  62.3	  63.4	  62.1	 1005.9	 1006.2	 1005.8	  69.0	  69.1	  66.6	65616	 65617	 19741	Clear	  71.2	  71.5	  69.5	  0.00	  2.38	 37.12	
2017	09	19	23	44	00 	  69.5	  70.0	  68.6	  81.6	 86.4	 79.5	  68.6	  69.0	  66.8	  80.6	  88.4	  78.7	  62.3	  63.4	  62.1	 1005.9	 1006.2	 1005.8	  68.8	  69.1	  66.6	65616	 65617	 19741	Clear	  71.3	  71.5	  69.5	  0.00	  2.38	 37.12	
2017	09	19	23	43	30 	  69.5	  70.0	  68.6	  81.5	 86.4	 79.5	  68.5	  69.0	  66.8	  80.7	  88.4	  78.7	  62.2	  63.4	  62.1	 1005.9	 1006.2	 1005.8	  68.8	  69.1	  66.6	65616	 65617	 19741	Clear	  71.3	  71.5	  69.5	  0.00	  2.38	 37.12	
2017	09	19	23	43	00 	  69.5	  70.0	  68.6	  81.4	 86.4	 79.5	  68.5	  69.0	  66.8	  80.7	  88.4	  78.7	  62.2	  63.4	  62.1	 1005.9	 1006.2	 1005.8	  68.4	  69.1	  66.6	65616	 65617	 19741	Clear	  71.2	  71.5	  69.5	  0.00	  2.38	 37.12	
2017	09	19	23	42	30 	  69.5	  70.0	  68.6	  81.2	 86.4	 79.5	  68.5	  69.0	  66.8	  80.7	  88.4	  78.7	  62.2	  63.4	  62.1	 1005.9	 1006.2	 1005.8	  68.4	  69.1	  66.6	65616	 65617	 19741	Clear	  71.2	  71.5	  69.5	  0.00	  2.38	 37.12	
2017	09	19	23	42	00 	  69.6	  70.0	  68.6	  81.0	 86.4	 79.5	  68.5	  69.0	  66.8	  80.6	  88.4	  78.7	  62.2	  63.4	  62.1	 1005.9	 1006.2	 1005.8	  67.9	  69.1	  66.6	65616	 65617	 19741	Clear	  71.3	  71.5	  69.5	  0.00	  2.38	 37.12	
2017	09	19	23	41	30 	  69.6	  70.0	  68.6	  80.8	 86.4	 79.5	  68.5	  69.0	  66.8	  80.5	  88.4	  78.7	  62.2	  63.4	  62.1	 1005.9	 1006.2	 1005.8	  67.9	  69.1	  66.6	65616	 65617	 19741	Clear	  71.3	  71.5	  69.5	  0.00	  2.38	 37.12	
2017	09	19	23	41	00 	  69.7	  70.0	  68.6	  80.6	 86.4	 79.5	  68.6	  69.0	  66.8	  80.2	  88.4	  78.7	  62.2	  63.4	  62.1	 1005.9	 1006.2	 1005.8	  68.2	  69.1	  66.6	65616	 65617	 19741	Clear	  71.3	  71.5	  69.5	  0.00	  2.38	 37.12	
2017	09	19	23	40	30 	  69.7	  70.0	  68.6	  80.4	 86.4	 79.5	  68.6	  69.0	  66.8	  80.0	  88.4	  78.7	  62.2	  63.4	  62.1	 1005.9	 1006.2	 1005.8	  68.2	  69.1	  66.6	65616	 65617	 19741	Clear	  71.3	  71.5	  69.5	  0.00	  2.38	 37.12	
2017	09	19	23	40	00 	  69.8	  70.0	  68.6	  80.2	 86.4	 79.5	  68.7	  69.0	  66.8	  79.7	  88.4	  78.7	  62.1	  63.4	  62.1	 1005.9	 1006.2	 1005.8	  68.3	  69.1	  66.6	65616	 65617	 19741	Clear	  71.2	  71.5	  69.5	  0.00	  2.38	 37.12	
2017	09	19	23	39	30 	  69.8	  70.0	  68.6	  80.0	 86.4	 79.5	  68.8	  69.0	  66.8	  79.4	  88.4	  78.7	  62.1	  63.4	  62.1	 1005.9	 1006.2	 1005.8	  68.3	  69.1	  66.6	65616	 65617	 19741	Clear	  71.3	  71.5	  69.5	  0.00	  2.38	 37.12	
2017	09	19	23	39	00 	  69.9	  70.0	  68.6	  79.8	 86.4	 79.5	  68.9	  69.0	  66.8	  79.2	  88.4	  78.7	  62.1	  63.4	  62.1	 1005.9	 1006.2	 1005.8	  68.5	  69.1	  66.6	65616	 65617	 19741	Clear	  71.3	  71.5	  69.5	  0.00	  2.38	 37.12	
2017	09	19	23	38	30 	  69.9	  70.0	  68.6	  79.7	 86.4	 79.5	  68.9	  69.0	  66.8	  79.0	  88.4	  78.7	  62.2	  63.4	  62.1	 1005.9	 1006.2	 1005.8	  68.5	  69.1	  66.6	65616	 65617	 19741	Clear	  71.2	  71.5	  69.5	  0.00	  2.38	 37.12	
2017	09	19	23	38	00 	  69.9	  70.0	  68.6	  79.6	 86.4	 79.5	  69.0	  69.0	  66.8	  78.8	  88.4	  78.7	  62.2	  63.4	  62.1	 1005.9	 1006.2	 1005.8	  68.7	  69.1	  66.6	65616	 65617	 19741	Clear	  71.3	  71.5	  69.5	  0.00	  2.38	 37.12	
2017	09	19	23	37	30 	  69.9	  70.0	  68.6	  79.5	 86.4	 79.5	  69.0	  69.0	  66.8	  78.8	  88.4	  78.7	  62.2	  63.4	  62.1	 1005.9	 1006.2	 1005.8	  68.7	  69.1	  66.6	65616	 65617	 19741	Clear	  71.3	  71.5	  69.5	  0.00	  2.38	 37.12	
2017	09	19	23	37	00 	  70.0	  70.0	  68.6	  79.5	 86.4	 79.5	  69.0	  69.0	  66.8	  78.7	  88.4	  78.7	  62.2	  63.4	  62.1	 1005.9	 1006.2	 1005.8	  68.9	  69.1	  66.6	65616	 65617	 19741	Clear	  71.3	  71.5	  69.5	  0.00	  2.38	 37.12	
2017	09	19	23	36	30 	  70.0	  70.0	  68.6	  79.5	 86.4	 79.5	  69.0	  69.0	  66.8	  78.7	  88.4	  78.7	  62.2	  63.4	  62.1	 1005.9	 1006.2	 1005.8	  68.9	  69.1	  66.6	65616	 65617	 19741	Clear	  71.3	  71.5	  69.5	  0.00	  2.38	 37.12	
2017	09	19	23	36	00 	  70.0	  69.9	  68.6	  79.5	 86.4	 79.5	  69.0	  69.0	  66.8	  78.8	  88.4	  78.9	  62.2	  63.4	  62.2	 1005.9	 1006.2	 1005.8	  69.1	  69.1	  66.6	65616	 65617	 19741	Clear	  71.3	  71.5	  69.5	  0.00	  2.38	 37.12	
2017	09	19	23	35	30 	  69.9	  69.9	  68.6	  79.5	 86.4	 79.5	  69.0	  69.0	  66.8	  78.9	  88.4	  78.9	  62.2	  63.4	  62.2	 1005.9	 1006.2	 1005.8	  69.1	  69.1	  66.6	65616	 65617	 19741	Clear	  71.2	  71.5	  69.5	  0.00	  2.38	 37.12	
2017	09	19	23	35	00 	  69.9	  69.9	  68.6	  79.6	 86.4	 79.6	  68.9	  68.9	  66.8	  79.0	  88.4	  79.2	  62.2	  63.4	  62.2	 1005.9	 1006.2	 1005.8	  69.1	  69.1	  66.6	65616	 65617	 19741	Clear	  71.3	  71.5	  69.5	  0.00	  2.38	 37.12	
2017	09	19	23	34	30 	  69.9	  69.9	  68.6	  79.6	 86.4	 79.6	  68.9	  68.9	  66.8	  79.2	  88.4	  79.2	  62.2	  63.4	  62.2	 1005.9	 1006.2	 1005.8	  69.1	  69.1	  66.6	65616	 65617	 19741	Clear	  71.3	  71.5	  69.5	  0.00	  2.38	 37.12	
2017	09	19	23	34	00 	  69.9	  69.9	  68.6	  79.7	 86.4	 79.7	  68.8	  68.8	  66.8	  79.4	  88.4	  79.6	  62.2	  63.4	  62.2	 1005.9	 1006.2	 1005.8	  69.0	  69.0	  66.6	65616	 65617	  4101	Clear	  71.3	  71.5	  69.5	  0.00	  2.38	 37.12	
2017	09	19	23	33	30 	  69.9	  69.9	  68.6	  79.7	 86.4	 79.7	  68.8	  68.8	  66.8	  79.6	  88.4	  79.6	  62.2	  63.4	  62.2	 1005.9	 1006.2	 1005.8	  69.0	  69.0	  66.6	65616	 65617	  4101	Clear	  71.3	  71.5	  69.5	  0.00	  2.38	 37.12	
2017	09	19	23	33	00 	  69.9	  69.9	  68.6	  79.7	 86.4	 79.8	  68.7	  68.6	  66.8	  79.8	  88.4	  80.0	  62.2	  63.4	  62.2	 1005.9	 1006.2	 1005.9	  69.0	  69.0	  66.6	65616	 65617	  4101	Clear	  71.3	  71.5	  69.5	  0.00	  2.38	 37.12	
2017	09	19	23	32	30 	  69.9	  69.9	  68.6	  79.8	 86.4	 79.8	  68.6	  68.6	  66.8	  80.0	  88.4	  80.0	  62.3	  63.4	  62.2	 1005.9	 1006.2	 1005.9	  69.0	  69.0	  66.6	65616	 65617	  4101	Clear	  71.2	  71.5	  69.5	  0.00	  2.38	 37.12	
2017	09	19	23	32	00 	  69.8	  69.8	  68.6	  79.8	 86.4	 79.9	  68.5	  68.4	  66.8	  80.4	  88.4	  80.7	  62.3	  63.4	  62.2	 1005.9	 1006.2	 1005.9	  68.8	  68.8	  66.6	65616	 65617	  4101	Clear	  71.3	  71.5	  69.5	  0.00	  2.38	 37.12	
2017	09	19	23	31	30 	  69.8	  69.8	  68.6	  79.9	 86.4	 79.9	  68.4	  68.4	  66.8	  80.7	  88.4	  80.7	  62.3	  63.4	  62.2	 1005.9	 1006.2	 1005.9	  68.8	  68.8	  66.6	63540	 65617	  4101	Clear	  71.2	  71.5	  69.5	  0.00	  2.38	 37.12	
2017	09	19	23	31	00 	  69.8	  69.8	  68.6	  79.9	 86.4	 79.9	  68.3	  68.2	  66.8	  81.1	  88.4	  81.4	  62.3	  63.4	  62.2	 1005.9	 1006.2	 1005.9	  68.8	  68.8	  66.6	65600	 65617	  4101	Clear	  71.3	  71.5	  69.5	  0.00	  2.38	 37.12	
2017	09	19	23	30	30 	  69.8	  69.8	  68.6	  79.9	 86.4	 79.9	  68.1	  68.2	  66.8	  81.4	  88.4	  81.4	  62.3	  63.4	  62.2	 1005.9	 1006.2	 1005.9	  68.8	  68.8	  66.6	57148	 65617	  4101	Clear	  71.3	  71.5	  69.5	  0.00	  2.38	 37.12	
2017	09	19	23	30	00 	  69.7	  69.7	  68.6	  79.9	 86.4	 80.0	  68.0	  68.2	  66.8	  81.7	  88.4	  82.1	  62.4	  63.4	  62.3	 1005.9	 1006.2	 1005.9	  68.6	  68.6	  66.6	58540	 65617	  4101	Clear	  71.3	  71.5	  69.5	  0.00	  2.38	 37.12	
2017	09	19	23	29	30 	  69.7	  69.7	  68.6	  80.0	 86.4	 80.0	  67.9	  68.2	  66.8	  82.1	  88.4	  82.1	  62.4	  63.4	  62.3	 1005.9	 1006.2	 1005.9	  68.6	  68.6	  66.6	59750	 65617	  4101	Clear	  71.3	  71.5	  69.5	  0.00	  2.38	 37.12	
2017	09	19	23	29	00 	  69.7	  69.6	  68.6	  80.0	 86.4	 80.1	  67.8	  68.2	  66.8	  82.6	  88.4	  82.9	  62.4	  63.4	  62.3	 1005.9	 1006.2	 1005.9	  68.1	  68.2	  66.6	56328	 65617	  4101	Clear	  71.3	  71.5	  69.5	  0.00	  2.38	 37.12	
2017	09	19	23	28	30 	  69.6	  69.6	  68.6	  80.1	 86.4	 80.1	  67.7	  68.2	  66.8	  82.9	  88.4	  82.9	  62.5	  63.4	  62.3	 1005.9	 1006.2	 1005.9	  68.1	  68.2	  66.6	51407	 65617	  4101	Clear	  71.3	  71.5	  69.5	  0.00	  2.38	 37.12	
2017	09	19	23	28	00 	  69.6	  69.5	  68.6	  80.1	 86.4	 80.2	  67.6	  68.3	  66.8	  83.2	  88.4	  83.4	  62.5	  63.4	  62.4	 1005.9	 1006.2	 1005.9	  67.9	  68.2	  66.6	44534	 65617	  4101	Clear	  71.3	  71.5	  69.5	  0.00	  2.38	 37.12	
2017	09	19	23	27	30 	  69.5	  69.5	  68.6	  80.2	 86.4	 80.2	  67.5	  68.3	  66.8	  83.7	  88.4	  83.4	  62.6	  63.4	  62.4	 1005.9	 1006.2	 1005.9	  67.9	  68.2	  66.6	34776	 65617	  4101	Clear	  71.3	  71.5	  69.5	  0.00	  2.38	 37.12	
2017	09	19	23	27	00 	  69.5	  69.5	  68.6	  80.3	 86.4	 80.3	  67.4	  68.3	  66.8	  84.1	  88.4	  83.4	  62.6	  63.4	  62.4	 1005.9	 1006.2	 1005.9	  67.7	  68.4	  66.6	40738	 65617	  4101	Clear	  71.3	  71.5	  69.5	  0.00	  2.38	 37.12	
2017	09	19	23	26	30 	  69.5	  69.5	  68.6	  80.3	 86.4	 80.3	  67.3	  68.3	  66.8	  84.5	  88.4	  83.4	  62.7	  63.4	  62.4	 1005.9	 1006.2	 1005.9	  67.7	  68.4	  66.6	65616	 65617	  4101	Clear	  71.3	  71.5	  69.5	  0.00	  2.38	 37.12	
2017	09	19	23	26	00 	  69.4	  69.5	  68.6	  80.4	 86.4	 80.6	  67.2	  68.3	  66.8	  84.8	  88.4	  83.3	  62.8	  63.4	  62.5	 1005.9	 1006.2	 1005.9	  67.6	  68.4	  66.6	65616	 65617	  4101	Clear	  71.3	  71.5	  69.5	  0.00	  2.38	 37.12	
2017	09	19	23	25	30 	  69.4	  69.5	  68.6	  80.6	 86.4	 80.6	  67.1	  68.3	  66.8	  85.2	  88.4	  83.3	  62.9	  63.4	  62.5	 1005.9	 1006.2	 1005.9	  67.6	  68.4	  66.6	57821	 65617	  4101	Clear	  71.3	  71.5	  69.5	  0.00	  2.38	 37.12	

Wind data

Year   mnth   day   hh    mm     ss       ff    dd

2017	09	20	01	29	43 	   3.6	  129	
2017	09	20	01	29	13 	   4.0	  132	
2017	09	20	01	28	43 	   4.7	  142	
2017	09	20	01	28	13 	   4.5	  134	
2017	09	20	01	27	43 	   3.1	  120	
2017	09	20	01	27	13 	   3.4	  118	
2017	09	20	01	26	43 	   4.0	  128	
2017	09	20	01	26	13 	   3.4	  152	
2017	09	20	01	25	43 	   3.1	  130	
2017	09	20	01	25	13 	   1.8	  150	
2017	09	20	01	24	43 	   1.8	  150	
2017	09	20	01	24	13 	   2.7	  156	
2017	09	20	01	23	43 	   2.9	  142	
2017	09	20	01	23	13 	   3.1	  140	
2017	09	20	01	22	43 	   2.9	  136	
2017	09	20	01	22	13 	   3.6	  124	
2017	09	20	01	21	43 	   2.2	  134	
2017	09	20	01	21	13 	   3.8	  126	
2017	09	20	01	20	43 	   4.0	  124	
2017	09	20	01	20	13 	   3.6	  120	
2017	09	20	01	19	43 	   3.6	  116	
2017	09	20	01	19	13 	   2.7	  120	
2017	09	20	01	18	43 	   2.9	  122	
2017	09	20	01	18	13 	   3.1	  120	
2017	09	20	01	17	43 	   2.5	  147	
2017	09	20	01	17	13 	   3.6	  141	
2017	09	20	01	16	43 	   2.5	  134	
2017	09	20	01	16	13 	   2.9	  134	
2017	09	20	01	15	43 	   3.1	  125	
2017	09	20	01	15	13 	   4.0	  128	
2017	09	20	01	14	43 	   2.9	  136	
2017	09	20	01	14	13 	   2.7	  114	
2017	09	20	01	13	43 	   3.4	  122	
2017	09	20	01	13	13 	   2.2	  134	
2017	09	20	01	12	43 	   3.4	  132	
2017	09	20	01	12	13 	   2.9	  136	
2017	09	20	01	11	43 	   2.9	  117	
2017	09	20	01	11	13 	   2.9	  128	
2017	09	20	01	10	43 	   2.7	  120	
2017	09	20	01	10	13 	   3.6	  108	
2017	09	20	01	09	43 	   2.0	  139	
2017	09	20	01	09	13 	   2.5	  134	
2017	09	20	01	08	43 	   2.5	  141	
2017	09	20	01	08	13 	   2.5	  129	
2017	09	20	01	07	43 	   2.7	  120	
2017	09	20	01	07	13 	   3.1	  130	
2017	09	20	01	06	43 	   3.4	  122	
2017	09	20	01	06	13 	   2.2	  113	
2017	09	20	01	05	43 	   1.8	  120	
2017	09	20	01	05	13 	   1.6	   90	
2017	09	20	01	04	43 	   2.2	  134	
2017	09	20	01	04	13 	   2.9	  122	
2017	09	20	01	03	43 	   2.9	  117	
2017	09	20	01	03	13 	   2.7	  139	
2017	09	20	01	02	43 	   2.9	  117	
2017	09	20	01	02	13 	   2.9	  134	
2017	09	20	01	01	43 	   2.7	  120	
2017	09	20	01	01	13 	   3.4	  143	
2017	09	20	01	00	43 	   3.8	  130	
2017	09	20	01	00	13 	   3.6	  124	
2017	09	20	00	59	43 	   2.0	  103	
2017	09	20	00	59	13 	   2.0	  103	
2017	09	20	00	58	43 	   2.5	  129	
2017	09	20	00	58	13 	   2.5	  129	
2017	09	20	00	57	43 	   2.0	  139	
2017	09	20	00	57	13 	   2.5	  134	
2017	09	20	00	56	43 	   2.2	  143	
2017	09	20	00	56	13 	   2.5	  123	
2017	09	20	00	55	43 	   1.8	  129	
2017	09	20	00	55	13 	   1.8	  120	
2017	09	20	00	54	43 	   2.0	  109	
2017	09	20	00	54	13 	   2.0	   96	
2017	09	20	00	53	43 	   1.8	   76	
2017	09	20	00	53	13 	   1.6	   90	
2017	09	20	00	52	43 	   1.6	  107	
2017	09	20	00	52	13 	   1.6	   90	
2017	09	20	00	51	43 	   1.6	   90	
2017	09	20	00	51	13 	   1.3	  132	
2017	09	20	00	50	43 	   1.3	  109	
2017	09	20	00	50	13 	   1.3	   71	
2017	09	20	00	49	43 	   0.4	   90	
2017	09	20	00	49	13 	   0.4	   60	
2017	09	20	00	48	43 	   1.1	   90	
2017	09	20	00	48	13 	   0.7	   71	
2017	09	20	00	47	43 	   1.1	   23	
2017	09	20	00	47	13 	   1.1	   23	
2017	09	20	00	46	43 	   1.3	    9	
2017	09	20	00	46	13 	   0.7	    0	
2017	09	20	00	45	43 	   2.0	    6	
2017	09	20	00	45	13 	   1.6	    0	
2017	09	20	00	44	43 	   1.8	  346	
2017	09	20	00	44	13 	   1.1	  349	
2017	09	20	00	43	43 	   0.7	   90	
2017	09	20	00	43	13 	   0.2	   90	
2017	09	20	00	42	43 	   0.7	  132	
2017	09	20	00	42	13 	   1.3	  132	
2017	09	20	00	41	43 	   1.1	  127	
2017	09	20	00	41	13 	   1.3	  139	
2017	09	20	00	40	44 	   1.6	  135	
2017	09	20	00	40	14 	   1.3	  132	
2017	09	20	00	39	44 	   1.6	  135	
2017	09	20	00	39	14 	   2.0	  139	
2017	09	20	00	38	44 	   0.9	  132	
2017	09	20	00	38	14 	   1.3	  132	
2017	09	20	00	37	44 	   2.0	  139	
2017	09	20	00	37	14 	   2.9	  142	
2017	09	20	00	36	44 	   2.9	  136	
2017	09	20	00	36	14 	   2.5	  129	
2017	09	20	00	35	44 	   1.8	  150	
2017	09	20	00	35	14 	   1.3	  132	
2017	09	20	00	34	44 	   2.7	  145	
2017	09	20	00	34	14 	   1.6	  145	
2017	09	20	00	33	44 	   2.2	  134	
2017	09	20	00	33	14 	   2.7	  139	
2017	09	20	00	32	44 	   2.2	  150	
2017	09	20	00	32	14 	   2.2	  127	
2017	09	20	00	31	44 	   2.5	  129	
2017	09	20	00	31	14 	   2.2	  143	
2017	09	20	00	30	44 	   2.9	  136	
2017	09	20	00	30	14 	   2.7	  126	
2017	09	20	00	29	44 	   3.1	  125	
2017	09	20	00	29	14 	   3.6	  124	
2017	09	20	00	28	44 	   2.7	  126	
2017	09	20	00	28	14 	   2.2	  113	
2017	09	20	00	27	44 	   3.1	  125	
2017	09	20	00	27	14 	   2.9	  134	
2017	09	20	00	26	44 	   2.2	  134	
2017	09	20	00	26	14 	   1.6	  155	
2017	09	20	00	25	44 	   1.8	  129	
2017	09	20	00	25	14 	   2.5	  129	
2017	09	20	00	24	44 	   1.6	  135	
2017	09	20	00	24	14 	   1.8	  120	
2017	09	20	00	23	44 	   2.0	  139	
2017	09	20	00	23	14 	   1.6	  145	
2017	09	20	00	22	44 	   2.2	  127	
2017	09	20	00	22	14 	   2.5	  123	
2017	09	20	00	21	44 	   2.0	  109	
2017	09	20	00	21	14 	   1.3	  132	
2017	09	20	00	20	44 	   1.8	  120	
2017	09	20	00	20	14 	   2.5	  129	
2017	09	20	00	19	44 	   1.8	  112	
2017	09	20	00	19	14 	   1.8	  120	
2017	09	20	00	18	44 	   2.5	  141	
2017	09	20	00	18	14 	   2.2	  127	
2017	09	20	00	17	44 	   1.3	  139	
2017	09	20	00	17	14 	   1.6	  107	
2017	09	20	00	16	44 	   2.2	  113	
2017	09	20	00	16	14 	   2.2	  120	
2017	09	20	00	15	44 	   2.5	  129	
2017	09	20	00	15	14 	   2.7	  139	
2017	09	20	00	14	44 	   2.5	  123	
2017	09	20	00	14	14 	   2.5	  141	
2017	09	20	00	13	44 	   1.3	  132	
2017	09	20	00	13	14 	   2.5	  141	
2017	09	20	00	12	44 	   2.2	  113	
2017	09	20	00	12	14 	   3.1	  145	
2017	09	20	00	11	44 	   2.9	  113	
2017	09	20	00	11	14 	   3.6	  133	
2017	09	20	00	10	44 	   1.8	  104	
2017	09	20	00	10	14 	   6.0	  107	
2017	09	20	00	09	44 	   3.1	  145	
2017	09	20	00	09	14 	   2.5	  123	
2017	09	20	00	08	44 	   3.1	  111	
2017	09	20	00	08	14 	   4.7	  132	
2017	09	20	00	07	44 	   3.4	  122	
2017	09	20	00	07	14 	   4.0	  109	
2017	09	20	00	06	44 	   4.3	  125	
2017	09	20	00	06	14 	   4.7	  128	
2017	09	20	00	05	44 	   4.0	  128	
2017	09	20	00	05	14 	   4.5	  113	
2017	09	20	00	04	44 	   4.0	  120	
2017	09	20	00	04	14 	   4.9	  108	
2017	09	20	00	03	44 	   4.7	  118	
2017	09	20	00	03	14 	   3.8	  107	
2017	09	20	00	02	44 	   4.0	  109	
2017	09	20	00	02	14 	   4.3	  125	
2017	09	20	00	01	44 	   4.3	  118	
2017	09	20	00	01	14 	   4.0	  120	
2017	09	20	00	00	44 	   3.6	  133	
2017	09	20	00	00	14 	   4.7	  132	
2017	09	19	23	59	44 	   4.5	  117	
2017	09	19	23	59	14 	   4.0	  113	
2017	09	19	23	58	44 	   4.5	  117	
2017	09	19	23	58	14 	   4.9	  100	
2017	09	19	23	57	44 	   2.0	  132	
2017	09	19	23	57	14 	   3.4	  127	
2017	09	19	23	56	44 	   1.8	  120	
2017	09	19	23	56	14 	   4.3	  115	
2017	09	19	23	55	44 	   3.1	  145	
2017	09	19	23	55	14 	   4.0	  134	
2017	09	19	23	54	44 	   2.9	  134	
2017	09	19	23	54	14 	   3.6	  129	
2017	09	19	23	53	44 	   3.6	  141	
2017	09	19	23	53	14 	   3.8	  130	
2017	09	19	23	52	44 	   4.3	  129	
2017	09	19	23	52	14 	   5.1	  113	
2017	09	19	23	51	44 	   2.7	  126	
2017	09	19	23	51	14 	   3.4	  122	
2017	09	19	23	50	44 	   3.8	  135	
2017	09	19	23	50	14 	   4.3	  112	
2017	09	19	23	49	44 	   4.0	  120	
2017	09	19	23	49	14 	   4.7	  118	
2017	09	19	23	48	44 	   4.5	  130	
2017	09	19	23	48	14 	   3.8	  126	
2017	09	19	23	47	44 	   4.9	   99	
2017	09	19	23	47	14 	   3.1	  115	
2017	09	19	23	46	44 	   3.4	  100	
2017	09	19	23	46	14 	   3.1	  108	
2017	09	19	23	45	44 	   3.1	  111	
2017	09	19	23	45	14 	   2.9	   99	
2017	09	19	23	44	44 	   2.7	  120	
2017	09	19	23	44	14 	   3.8	   94	
2017	09	19	23	43	44 	   2.5	  100	
2017	09	19	23	43	14 	   4.3	  102	
2017	09	19	23	42	44 	   3.6	  104	
2017	09	19	23	42	14 	   2.2	  134	
2017	09	19	23	41	44 	   4.3	  102	
2017	09	19	23	41	14 	   5.1	  108	
2017	09	19	23	40	44 	   5.6	  104	
2017	09	19	23	40	14 	   3.8	  118	
2017	09	19	23	39	44 	   4.3	  108	
2017	09	19	23	39	14 	   4.0	  120	
2017	09	19	23	38	44 	   4.3	  108	
2017	09	19	23	38	14 	   4.0	  113	
2017	09	19	23	37	44 	   4.0	  124	
2017	09	19	23	37	14 	   4.5	  107	
2017	09	19	23	36	44 	   4.3	  112	
2017	09	19	23	36	14 	   4.3	  102	
2017	09	19	23	35	44 	   3.6	  120	
2017	09	19	23	35	14 	   3.6	  120	
2017	09	19	23	34	44 	   4.3	  115	
2017	09	19	23	34	14 	   4.0	   99	
2017	09	19	23	33	44 	   3.1	   98	
2017	09	19	23	33	14 	   4.5	  113	
2017	09	19	23	32	44 	   3.8	  118	
2017	09	19	23	32	14 	   3.4	  127	
2017	09	19	23	31	44 	   3.4	  101	
2017	09	19	23	31	14 	   4.5	   93	
2017	09	19	23	30	44 	   6.5	   82	
2017	09	19	23	30	14 	   4.0	  103	
2017	09	19	23	29	44 	   4.3	  112	
2017	09	19	23	29	14 	   3.1	   82	
2017	09	19	23	28	44 	   4.3	  102	
2017	09	19	23	28	14 	   4.0	  103	
2017	09	19	23	27	44 	   5.1	  100	
2017	09	19	23	27	14 	   4.5	  110	
2017	09	19	23	26	44 	   3.6	   97	
2017	09	19	23	26	14 	   3.4	   90	
2017	09	19	23	25	44 	   3.4	  105	
2017	09	19	23	25	14 	   3.8	  100	
2017	09	19	23	24	44 	   3.8	  111	
2017	09	19	23	24	14 	   4.0	   90	
2017	09	19	23	23	44 	   4.0	  106	
2017	09	19	23	23	14 	   3.8	  111	
2017	09	19	23	22	44 	   2.2	   30	
2017	09	19	23	22	14 	   4.0	  120	
2017	09	19	23	21	44 	   4.0	  106	
2017	09	19	23	21	14 	   3.4	  127	
2017	09	19	23	20	44 	   3.6	  112	
2017	09	19	23	20	14 	   3.8	  122	
2017	09	19	23	19	44 	   3.1	  111	
2017	09	19	23	19	14 	   4.0	  106	
2017	09	19	23	18	44 	   3.4	  127	
2017	09	19	23	18	14 	   4.0	  132	
2017	09	19	23	17	44 	   2.9	  122	
2017	09	19	23	17	14 	   2.7	  120	
2017	09	19	23	16	44 	   2.5	  123	
2017	09	19	23	16	14 	   2.9	  117	
2017	09	19	23	15	44 	   2.9	  128	
2017	09	19	23	15	14 	   2.9	  122	
2017	09	19	23	14	44 	   3.4	  118	
2017	09	19	23	14	14 	   3.4	  122	
2017	09	19	23	13	44 	   2.0	  103	
2017	09	19	23	13	14 	   3.4	  118	
2017	09	19	23	12	44 	   1.8	  141	
2017	09	19	23	12	14 	   2.2	  107	
2017	09	19	23	11	44 	   2.5	  123	
2017	09	19	23	11	14 	   1.8	  120	
2017	09	19	23	10	44 	   2.2	  113	
2017	09	19	23	10	14 	   2.2	  120	
2017	09	19	23	09	44 	   2.7	  114	
2017	09	19	23	09	14 	   2.7	  126	
2017	09	19	23	08	44 	   2.5	  117	
2017	09	19	23	08	14 	   1.6	  135	
2017	09	19	23	07	44 	   2.7	  114	
2017	09	19	23	07	14 	   2.2	  107	
2017	09	19	23	06	44 	   2.5	  129	
2017	09	19	23	06	14 	   3.1	  130	
2017	09	19	23	05	44 	   2.2	  134	
2017	09	19	23	05	14 	   1.6	  155	
2017	09	19	23	04	44 	   2.9	  122	
2017	09	19	23	04	14 	   1.3	  150	
2017	09	19	23	03	44 	   1.8	  129	
2017	09	19	23	03	14 	   2.5	  129	
2017	09	19	23	02	44 	   2.0	  139	
2017	09	19	23	02	14 	   1.8	  141	
2017	09	19	23	01	44 	   2.7	  120	
2017	09	19	23	01	14 	   2.5	  141	
2017	09	19	23	00	44 	   2.9	  134	
2017	09	19	23	00	14 	   2.5	  129	
2017	09	19	22	59	44 	   2.7	  139	
2017	09	19	22	59	14 	   2.5	  134	
2017	09	19	22	58	44 	   2.2	  120	
2017	09	19	22	58	14 	   2.2	  113	
2017	09	19	22	57	44 	   2.2	  127	
2017	09	19	22	57	14 	   2.9	  122	
2017	09	19	22	56	44 	   2.9	  128	
2017	09	19	22	56	14 	   2.9	  142	
2017	09	19	22	55	44 	   2.9	  117	
2017	09	19	22	55	14 	   3.4	  132	
2017	09	19	22	54	44 	   2.5	  129	
2017	09	19	22	54	14 	   3.1	  125	
2017	09	19	22	53	44 	   3.6	  116	
2017	09	19	22	53	14 	   1.8	  129	
2017	09	19	22	52	44 	   3.6	  116	
2017	09	19	22	52	14 	   2.9	  136	
2017	09	19	22	51	44 	   3.1	  130	
2017	09	19	22	51	14 	   2.9	  128	
2017	09	19	22	50	44 	   3.4	  132	
2017	09	19	22	50	14 	   3.6	  129	
2017	09	19	22	49	44 	   3.1	  125	
2017	09	19	22	49	14 	   2.9	  128	
2017	09	19	22	48	44 	   3.1	  130	
2017	09	19	22	48	14 	   3.6	  129	
2017	09	19	22	47	44 	   2.9	  134	
2017	09	19	22	47	14 	   3.1	  125	
2017	09	19	22	46	44 	   3.1	  125	
2017	09	19	22	46	14 	   2.9	  134	
2017	09	19	22	45	44 	   2.7	  139	
2017	09	19	22	45	14 	   2.5	  134	
2017	09	19	22	44	44 	   2.9	  122	
2017	09	19	22	44	14 	   2.5	  117	
2017	09	19	22	43	44 	   2.5	  134	
2017	09	19	22	43	14 	   2.5	  134	
2017	09	19	22	42	44 	   1.3	  132	
2017	09	19	22	42	14 	   1.8	  129	
2017	09	19	22	41	44 	   2.7	  114	
2017	09	19	22	41	14 	   2.0	  132	
2017	09	19	22	40	44 	   3.1	  125	
2017	09	19	22	40	14 	   2.0	  103	
2017	09	19	22	39	44 	   2.0	  132	
2017	09	19	22	39	14 	   2.0	  132	
2017	09	19	22	38	44 	   1.6	  107	
2017	09	19	22	38	14 	   3.1	  102	
2017	09	19	22	37	44 	   2.2	  120	
2017	09	19	22	37	14 	   2.2	  120	
2017	09	19	22	36	44 	   2.5	  117	
2017	09	19	22	36	14 	   2.0	   96	
2017	09	19	22	35	44 	   2.0	   90	
2017	09	19	22	35	14 	   2.9	  122	
2017	09	19	22	34	44 	   3.1	  125	
2017	09	19	22	34	14 	   2.7	  104	
2017	09	19	22	33	44 	   2.5	  117	
2017	09	19	22	33	14 	   2.2	  120	
2017	09	19	22	32	44 	   2.9	  117	
2017	09	19	22	32	14 	   2.0	  116	
2017	09	19	22	31	44 	   3.8	  111	
2017	09	19	22	31	14 	   3.4	  105	
2017	09	19	22	30	44 	   2.7	  126	
2017	09	19	22	30	14 	   2.5	  141	
2017	09	19	22	29	44 	   3.1	  125	
2017	09	19	22	29	14 	   3.1	  125	
2017	09	19	22	28	44 	   4.5	  104	
2017	09	19	22	28	14 	   2.9	  136	
2017	09	19	22	27	44 	   3.8	  126	
2017	09	19	22	27	14 	   3.6	  129	
2017	09	19	22	26	44 	   4.7	  122	
2017	09	19	22	26	14 	   3.8	  122	
2017	09	19	22	25	44 	   3.6	  112	
2017	09	19	22	25	14 	   3.4	  118	
2017	09	19	22	24	44 	   4.0	  124	
2017	09	19	22	24	14 	   4.5	  113	
2017	09	19	22	23	44 	   4.0	  128	
2017	09	19	22	23	14 	   3.4	  118	
2017	09	19	22	22	44 	   3.1	  125	
2017	09	19	22	22	14 	   3.1	  140	
2017	09	19	22	21	44 	   4.0	  134	
2017	09	19	22	21	14 	   3.1	   98	
2017	09	19	22	20	44 	   3.4	  122	
2017	09	19	22	20	14 	   2.9	  128	
2017	09	19	22	19	44 	   3.1	  115	
2017	09	19	22	19	14 	   3.6	  116	
2017	09	19	22	18	44 	   3.1	  120	
2017	09	19	22	18	14 	   2.9	  117	
2017	09	19	22	17	44 	   3.1	  102	
2017	09	19	22	17	14 	   3.4	  132	
2017	09	19	22	16	44 	   2.9	  117	
2017	09	19	22	16	14 	   3.6	  129	
2017	09	19	22	15	44 	   4.3	  125	
2017	09	19	22	15	14 	   2.2	   96	
2017	09	19	22	14	44 	   1.8	  120	
2017	09	19	22	14	14 	   3.6	  108	
2017	09	19	22	13	44 	   3.6	  116	
2017	09	19	22	13	14 	   3.8	  122	
2017	09	19	22	12	44 	   4.7	  118	
2017	09	19	22	12	14 	   4.5	   93	
2017	09	19	22	11	44 	   3.4	  132	
2017	09	19	22	11	14 	   3.6	  116	
2017	09	19	22	10	44 	   2.5	  106	
2017	09	19	22	10	14 	   4.9	  108	
2017	09	19	22	09	44 	   4.3	   90	
2017	09	19	22	09	14 	   3.8	  111	
2017	09	19	22	08	44 	   4.3	  105	
2017	09	19	22	08	14 	   3.8	  111	
2017	09	19	22	07	44 	   3.1	  120	
2017	09	19	22	07	14 	   2.7	   90	
2017	09	19	22	06	44 	   2.9	   99	
2017	09	19	22	06	14 	   3.4	   94	
2017	09	19	22	05	44 	   2.7	  109	
2017	09	19	22	05	14 	   3.4	   94	
2017	09	19	22	04	44 	   2.2	  101	
2017	09	19	22	04	14 	   2.9	  108	
2017	09	19	22	03	44 	   3.4	  101	
2017	09	19	22	03	14 	   3.1	  111	
2017	09	19	22	02	44 	   3.1	  102	
2017	09	19	22	02	14 	   2.9	  113	
2017	09	19	22	01	44 	   3.1	  125	
2017	09	19	22	01	14 	   3.1	  102	
2017	09	19	22	00	44 	   3.1	  130	
2017	09	19	22	00	14 	   2.5	  100	
2017	09	19	21	59	44 	   3.1	   90	
2017	09	19	21	59	14 	   2.9	  108	
2017	09	19	21	58	44 	   2.9	  117	
2017	09	19	21	58	14 	   2.5	  117	
2017	09	19	21	57	44 	   3.1	   94	
2017	09	19	21	57	14 	   2.5	  106	
2017	09	19	21	56	44 	   2.5	  117	
2017	09	19	21	56	14 	   4.0	  113	
2017	09	19	21	55	44 	   2.7	  114	
2017	09	19	21	55	14 	   2.9	  117	
2017	09	19	21	54	44 	   3.4	  105	
2017	09	19	21	54	14 	   3.6	  120	
2017	09	19	21	53	44 	   4.0	  103	
2017	09	19	21	53	14 	   2.7	  120	
2017	09	19	21	52	44 	   2.9	  113	
2017	09	19	21	52	14 	   2.7	  120	
2017	09	19	21	51	44 	   3.4	  122	
2017	09	19	21	51	14 	   2.9	  117	
2017	09	19	21	50	44 	   2.7	  126	
2017	09	19	21	50	14 	   2.2	  120	
2017	09	19	21	49	44 	   2.0	  132	
2017	09	19	21	49	14 	   2.2	  127	
2017	09	19	21	48	44 	   1.8	  120	
2017	09	19	21	48	14 	   2.9	  136	
2017	09	19	21	47	44 	   2.5	  123	
2017	09	19	21	47	14 	   1.8	  104	
2017	09	19	21	46	44 	   2.9	  108	
2017	09	19	21	46	14 	   2.5	  129	
2017	09	19	21	45	44 	   2.2	  134	
2017	09	19	21	45	14 	   2.5	  134	
2017	09	19	21	44	44 	   2.0	  132	
2017	09	19	21	44	14 	   2.5	  123	
2017	09	19	21	43	44 	   2.9	  136	
2017	09	19	21	43	14 	   2.9	  122	
2017	09	19	21	42	44 	   2.0	  132	
2017	09	19	21	42	14 	   3.4	  143	
2017	09	19	21	41	44 	   3.1	  130	
2017	09	19	21	41	14 	   2.5	  129	
2017	09	19	21	40	44 	   3.1	  130	
2017	09	19	21	40	14 	   2.7	  139	
2017	09	19	21	39	44 	   2.2	  127	
2017	09	19	21	39	14 	   3.4	  132	
2017	09	19	21	38	44 	   2.5	  129	
2017	09	19	21	38	14 	   2.5	  123	
2017	09	19	21	37	44 	   2.5	  134	
2017	09	19	21	37	14 	   2.0	  116	
2017	09	19	21	36	44 	   2.0	  132	
2017	09	19	21	36	14 	   1.8	  141	
2017	09	19	21	35	44 	   2.0	  146	
2017	09	19	21	35	14 	   2.5	  141	
2017	09	19	21	34	44 	   1.8	  150	
2017	09	19	21	34	14 	   1.3	  139	
2017	09	19	21	33	44 	   1.3	  139	
2017	09	19	21	33	14 	   1.3	  150	
2017	09	19	21	32	44 	   1.3	  150	
2017	09	19	21	32	14 	   1.3	  132	
2017	09	19	21	31	44 	   1.8	  150	
2017	09	19	21	31	14 	   1.1	  157	
2017	09	19	21	30	44 	   1.6	  155	
2017	09	19	21	30	14 	   1.3	  150	


Time [Local Time: 24 hour], Temperatures [F], RH [%], Pressure [hPa], Visibility [feet], and Precipitation [Inches]

Max & min values for TT_2m and TT_10m, Tch_2m, RH, PP, and Visibility are over last hour

Max & min values for ground temperature Tg are over the last 24 hours

Meteorological wind direction dd [degrees], Wind Speed ff [mph]; winds are instantaneous values